<?xml version="1.0" encoding="UTF-8" standalone="no" ?>
<gpx xmlns="http://www.topografix.com/GPX/1/1" xmlns:xsi="http://www.w3.org/2001/XMLSchema-instance" xsi:schemaLocation="http://www.topografix.com/GPX/1/1 http://www.topografix.com/GPX/1/1/gpx.xsd" version="1.1" creator="VisuGPX - https://www.visugpx.com">
  <metadata>
    <name>Etape 20 Camprodon-Coll d'Ares  Partie 1</name>
    <desc><![CDATA[D+  715m    D-  225m    15km]]></desc>
  </metadata>
  <trk>
    <name><![CDATA[Camprodon-Coll d'Ares-Tour du Mir-Coll Pregon-Espinavell-Mol...]]></name>
    <trkseg>
      <trkpt lat="42.31397" lon="2.37548">
        <ele>1027.676</ele>
        <time>2015-06-06T04:19:41Z</time>
      </trkpt>
      <trkpt lat="42.31398" lon="2.37563">
        <ele>1027.616</ele>
        <time>2015-06-06T04:19:46Z</time>
      </trkpt>
      <trkpt lat="42.31399" lon="2.37577">
        <ele>1027.95</ele>
        <time>2015-06-06T04:19:51Z</time>
      </trkpt>
      <trkpt lat="42.31402" lon="2.37591">
        <ele>1028.295</ele>
        <time>2015-06-06T04:19:56Z</time>
      </trkpt>
      <trkpt lat="42.31405" lon="2.37604">
        <ele>1028.468</ele>
        <time>2015-06-06T04:20:01Z</time>
      </trkpt>
      <trkpt lat="42.31407" lon="2.37617">
        <ele>1028.39</ele>
        <time>2015-06-06T04:20:06Z</time>
      </trkpt>
      <trkpt lat="42.31408" lon="2.37629">
        <ele>1028.449</ele>
        <time>2015-06-06T04:20:11Z</time>
      </trkpt>
      <trkpt lat="42.31409" lon="2.37644">
        <ele>1028.858</ele>
        <time>2015-06-06T04:20:16Z</time>
      </trkpt>
      <trkpt lat="42.3141" lon="2.37658">
        <ele>1029.152</ele>
        <time>2015-06-06T04:20:21Z</time>
      </trkpt>
      <trkpt lat="42.31412" lon="2.37676">
        <ele>1029.517</ele>
        <time>2015-06-06T04:20:27Z</time>
      </trkpt>
      <trkpt lat="42.31413" lon="2.3769">
        <ele>1029.707</ele>
        <time>2015-06-06T04:20:32Z</time>
      </trkpt>
      <trkpt lat="42.31415" lon="2.37707">
        <ele>1029.734</ele>
        <time>2015-06-06T04:20:38Z</time>
      </trkpt>
      <trkpt lat="42.31417" lon="2.37721">
        <ele>1030.054</ele>
        <time>2015-06-06T04:20:43Z</time>
      </trkpt>
      <trkpt lat="42.31419" lon="2.37737">
        <ele>1030.138</ele>
        <time>2015-06-06T04:20:48Z</time>
      </trkpt>
      <trkpt lat="42.31422" lon="2.37751">
        <ele>1030.333</ele>
        <time>2015-06-06T04:20:53Z</time>
      </trkpt>
      <trkpt lat="42.31424" lon="2.37767">
        <ele>1030.876</ele>
        <time>2015-06-06T04:20:59Z</time>
      </trkpt>
      <trkpt lat="42.31427" lon="2.37782">
        <ele>1031.148</ele>
        <time>2015-06-06T04:21:05Z</time>
      </trkpt>
      <trkpt lat="42.31431" lon="2.37795">
        <ele>1031.817</ele>
        <time>2015-06-06T04:21:11Z</time>
      </trkpt>
      <trkpt lat="42.31428" lon="2.37805">
        <ele>1033.145</ele>
        <time>2015-06-06T04:21:48Z</time>
      </trkpt>
      <trkpt lat="42.31427" lon="2.37819">
        <ele>1033.447</ele>
        <time>2015-06-06T04:22:09Z</time>
      </trkpt>
      <trkpt lat="42.31425" lon="2.37833">
        <ele>1033.511</ele>
        <time>2015-06-06T04:22:14Z</time>
      </trkpt>
      <trkpt lat="42.31422" lon="2.37847">
        <ele>1033.607</ele>
        <time>2015-06-06T04:22:19Z</time>
      </trkpt>
      <trkpt lat="42.31419" lon="2.37862">
        <ele>1033.873</ele>
        <time>2015-06-06T04:22:24Z</time>
      </trkpt>
      <trkpt lat="42.31416" lon="2.37875">
        <ele>1034.313</ele>
        <time>2015-06-06T04:22:29Z</time>
      </trkpt>
      <trkpt lat="42.31413" lon="2.37888">
        <ele>1034.557</ele>
        <time>2015-06-06T04:22:33Z</time>
      </trkpt>
      <trkpt lat="42.31411" lon="2.37903">
        <ele>1034.882</ele>
        <time>2015-06-06T04:22:38Z</time>
      </trkpt>
      <trkpt lat="42.31408" lon="2.37916">
        <ele>1035.215</ele>
        <time>2015-06-06T04:22:43Z</time>
      </trkpt>
      <trkpt lat="42.31405" lon="2.3793">
        <ele>1035.417</ele>
        <time>2015-06-06T04:22:48Z</time>
      </trkpt>
      <trkpt lat="42.31402" lon="2.37947">
        <ele>1035.516</ele>
        <time>2015-06-06T04:22:53Z</time>
      </trkpt>
      <trkpt lat="42.31398" lon="2.37962">
        <ele>1035.493</ele>
        <time>2015-06-06T04:22:57Z</time>
      </trkpt>
      <trkpt lat="42.31396" lon="2.37975">
        <ele>1035.365</ele>
        <time>2015-06-06T04:23:00Z</time>
      </trkpt>
      <trkpt lat="42.31395" lon="2.37988">
        <ele>1035.021</ele>
        <time>2015-06-06T04:23:03Z</time>
      </trkpt>
      <trkpt lat="42.31397" lon="2.38003">
        <ele>1034.607</ele>
        <time>2015-06-06T04:23:07Z</time>
      </trkpt>
      <trkpt lat="42.31397" lon="2.38021">
        <ele>1034.558</ele>
        <time>2015-06-06T04:23:11Z</time>
      </trkpt>
      <trkpt lat="42.31396" lon="2.38039">
        <ele>1034.368</ele>
        <time>2015-06-06T04:23:15Z</time>
      </trkpt>
      <trkpt lat="42.31394" lon="2.38055">
        <ele>1034.222</ele>
        <time>2015-06-06T04:23:19Z</time>
      </trkpt>
      <trkpt lat="42.3139" lon="2.3808">
        <ele>1034.527</ele>
        <time>2015-06-06T04:23:27Z</time>
      </trkpt>
      <trkpt lat="42.3138" lon="2.38101">
        <ele>1035.22</ele>
        <time>2015-06-06T04:23:48Z</time>
      </trkpt>
      <trkpt lat="42.31386" lon="2.38101">
        <ele>1034.922</ele>
        <time>2015-06-06T04:24:09Z</time>
      </trkpt>
      <trkpt lat="42.31387" lon="2.38119">
        <ele>1035.441</ele>
        <time>2015-06-06T04:24:20Z</time>
      </trkpt>
      <trkpt lat="42.31384" lon="2.38123">
        <ele>1035.998</ele>
        <time>2015-06-06T04:24:43Z</time>
      </trkpt>
      <trkpt lat="42.31381" lon="2.3813">
        <ele>1035.815</ele>
        <time>2015-06-06T04:25:23Z</time>
      </trkpt>
      <trkpt lat="42.31387" lon="2.38141">
        <ele>1036.126</ele>
        <time>2015-06-06T04:25:39Z</time>
      </trkpt>
      <trkpt lat="42.3139" lon="2.38157">
        <ele>1037.007</ele>
        <time>2015-06-06T04:25:46Z</time>
      </trkpt>
      <trkpt lat="42.31395" lon="2.38171">
        <ele>1038.268</ele>
        <time>2015-06-06T04:25:53Z</time>
      </trkpt>
      <trkpt lat="42.31393" lon="2.3819">
        <ele>1038.828</ele>
        <time>2015-06-06T04:26:01Z</time>
      </trkpt>
      <trkpt lat="42.31394" lon="2.38184">
        <ele>1038.952</ele>
        <time>2015-06-06T04:26:08Z</time>
      </trkpt>
      <trkpt lat="42.31395" lon="2.38173">
        <ele>1039.027</ele>
        <time>2015-06-06T04:26:15Z</time>
      </trkpt>
      <trkpt lat="42.31396" lon="2.38187">
        <ele>1038.91</ele>
        <time>2015-06-06T04:26:26Z</time>
      </trkpt>
      <trkpt lat="42.31397" lon="2.38207">
        <ele>1039.152</ele>
        <time>2015-06-06T04:26:33Z</time>
      </trkpt>
      <trkpt lat="42.31393" lon="2.38224">
        <ele>1039.271</ele>
        <time>2015-06-06T04:26:38Z</time>
      </trkpt>
      <trkpt lat="42.31388" lon="2.38237">
        <ele>1039.281</ele>
        <time>2015-06-06T04:26:42Z</time>
      </trkpt>
      <trkpt lat="42.31379" lon="2.38251">
        <ele>1039.261</ele>
        <time>2015-06-06T04:26:46Z</time>
      </trkpt>
      <trkpt lat="42.31376" lon="2.38266">
        <ele>1039.617</ele>
        <time>2015-06-06T04:26:50Z</time>
      </trkpt>
      <trkpt lat="42.3137" lon="2.38284">
        <ele>1040.407</ele>
        <time>2015-06-06T04:26:55Z</time>
      </trkpt>
      <trkpt lat="42.31364" lon="2.383">
        <ele>1041.147</ele>
        <time>2015-06-06T04:26:59Z</time>
      </trkpt>
      <trkpt lat="42.31359" lon="2.38314">
        <ele>1041.537</ele>
        <time>2015-06-06T04:27:03Z</time>
      </trkpt>
      <trkpt lat="42.31355" lon="2.38327">
        <ele>1041.571</ele>
        <time>2015-06-06T04:27:07Z</time>
      </trkpt>
      <trkpt lat="42.3135" lon="2.38342">
        <ele>1041.746</ele>
        <time>2015-06-06T04:27:11Z</time>
      </trkpt>
      <trkpt lat="42.31345" lon="2.38357">
        <ele>1041.879</ele>
        <time>2015-06-06T04:27:15Z</time>
      </trkpt>
      <trkpt lat="42.31341" lon="2.38372">
        <ele>1041.981</ele>
        <time>2015-06-06T04:27:19Z</time>
      </trkpt>
      <trkpt lat="42.31337" lon="2.38386">
        <ele>1041.99</ele>
        <time>2015-06-06T04:27:23Z</time>
      </trkpt>
      <trkpt lat="42.31334" lon="2.384">
        <ele>1042.086</ele>
        <time>2015-06-06T04:27:27Z</time>
      </trkpt>
      <trkpt lat="42.31331" lon="2.38414">
        <ele>1042.16</ele>
        <time>2015-06-06T04:27:31Z</time>
      </trkpt>
      <trkpt lat="42.31328" lon="2.38426">
        <ele>1042.326</ele>
        <time>2015-06-06T04:27:35Z</time>
      </trkpt>
      <trkpt lat="42.31326" lon="2.3844">
        <ele>1042.607</ele>
        <time>2015-06-06T04:27:39Z</time>
      </trkpt>
      <trkpt lat="42.31325" lon="2.38453">
        <ele>1043.077</ele>
        <time>2015-06-06T04:27:43Z</time>
      </trkpt>
      <trkpt lat="42.31324" lon="2.38466">
        <ele>1043.577</ele>
        <time>2015-06-06T04:27:47Z</time>
      </trkpt>
      <trkpt lat="42.31323" lon="2.3848">
        <ele>1043.871</ele>
        <time>2015-06-06T04:27:51Z</time>
      </trkpt>
      <trkpt lat="42.31322" lon="2.38494">
        <ele>1044.156</ele>
        <time>2015-06-06T04:27:55Z</time>
      </trkpt>
      <trkpt lat="42.31323" lon="2.38507">
        <ele>1044.389</ele>
        <time>2015-06-06T04:27:59Z</time>
      </trkpt>
      <trkpt lat="42.31322" lon="2.38519">
        <ele>1044.451</ele>
        <time>2015-06-06T04:28:03Z</time>
      </trkpt>
      <trkpt lat="42.31321" lon="2.38535">
        <ele>1044.43</ele>
        <time>2015-06-06T04:28:08Z</time>
      </trkpt>
      <trkpt lat="42.31318" lon="2.38551">
        <ele>1044.538</ele>
        <time>2015-06-06T04:28:12Z</time>
      </trkpt>
      <trkpt lat="42.31316" lon="2.38567">
        <ele>1044.77</ele>
        <time>2015-06-06T04:28:16Z</time>
      </trkpt>
      <trkpt lat="42.31315" lon="2.38583">
        <ele>1044.817</ele>
        <time>2015-06-06T04:28:20Z</time>
      </trkpt>
      <trkpt lat="42.31313" lon="2.38598">
        <ele>1044.907</ele>
        <time>2015-06-06T04:28:24Z</time>
      </trkpt>
      <trkpt lat="42.31313" lon="2.38614">
        <ele>1045.142</ele>
        <time>2015-06-06T04:28:28Z</time>
      </trkpt>
      <trkpt lat="42.31313" lon="2.38628">
        <ele>1045.272</ele>
        <time>2015-06-06T04:28:32Z</time>
      </trkpt>
      <trkpt lat="42.31315" lon="2.38644">
        <ele>1045.196</ele>
        <time>2015-06-06T04:28:36Z</time>
      </trkpt>
      <trkpt lat="42.31317" lon="2.38658">
        <ele>1044.971</ele>
        <time>2015-06-06T04:28:40Z</time>
      </trkpt>
      <trkpt lat="42.31319" lon="2.38672">
        <ele>1044.934</ele>
        <time>2015-06-06T04:28:44Z</time>
      </trkpt>
      <trkpt lat="42.31321" lon="2.38687">
        <ele>1045.276</ele>
        <time>2015-06-06T04:28:49Z</time>
      </trkpt>
      <trkpt lat="42.31324" lon="2.38701">
        <ele>1046.015</ele>
        <time>2015-06-06T04:28:54Z</time>
      </trkpt>
      <trkpt lat="42.31325" lon="2.38716">
        <ele>1046.551</ele>
        <time>2015-06-06T04:28:59Z</time>
      </trkpt>
      <trkpt lat="42.31324" lon="2.38732">
        <ele>1046.701</ele>
        <time>2015-06-06T04:29:04Z</time>
      </trkpt>
      <trkpt lat="42.31326" lon="2.38746">
        <ele>1047.011</ele>
        <time>2015-06-06T04:29:09Z</time>
      </trkpt>
      <trkpt lat="42.3133" lon="2.38759">
        <ele>1047.507</ele>
        <time>2015-06-06T04:29:14Z</time>
      </trkpt>
      <trkpt lat="42.31333" lon="2.38772">
        <ele>1048.174</ele>
        <time>2015-06-06T04:29:19Z</time>
      </trkpt>
      <trkpt lat="42.31334" lon="2.38787">
        <ele>1048.414</ele>
        <time>2015-06-06T04:29:24Z</time>
      </trkpt>
      <trkpt lat="42.31338" lon="2.38802">
        <ele>1048.788</ele>
        <time>2015-06-06T04:29:29Z</time>
      </trkpt>
      <trkpt lat="42.31341" lon="2.38817">
        <ele>1049.093</ele>
        <time>2015-06-06T04:29:34Z</time>
      </trkpt>
      <trkpt lat="42.31345" lon="2.3883">
        <ele>1049.146</ele>
        <time>2015-06-06T04:29:39Z</time>
      </trkpt>
      <trkpt lat="42.31351" lon="2.38844">
        <ele>1049.218</ele>
        <time>2015-06-06T04:29:44Z</time>
      </trkpt>
      <trkpt lat="42.31356" lon="2.38859">
        <ele>1049.387</ele>
        <time>2015-06-06T04:29:49Z</time>
      </trkpt>
      <trkpt lat="42.3136" lon="2.38874">
        <ele>1049.529</ele>
        <time>2015-06-06T04:29:54Z</time>
      </trkpt>
      <trkpt lat="42.31366" lon="2.38889">
        <ele>1049.6</ele>
        <time>2015-06-06T04:29:59Z</time>
      </trkpt>
      <trkpt lat="42.31371" lon="2.38903">
        <ele>1049.82</ele>
        <time>2015-06-06T04:30:04Z</time>
      </trkpt>
      <trkpt lat="42.31375" lon="2.38916">
        <ele>1050.007</ele>
        <time>2015-06-06T04:30:09Z</time>
      </trkpt>
      <trkpt lat="42.31382" lon="2.38929">
        <ele>1050.061</ele>
        <time>2015-06-06T04:30:14Z</time>
      </trkpt>
      <trkpt lat="42.31387" lon="2.38943">
        <ele>1050.391</ele>
        <time>2015-06-06T04:30:19Z</time>
      </trkpt>
      <trkpt lat="42.31391" lon="2.38956">
        <ele>1050.615</ele>
        <time>2015-06-06T04:30:24Z</time>
      </trkpt>
      <trkpt lat="42.31395" lon="2.3897">
        <ele>1050.94</ele>
        <time>2015-06-06T04:30:29Z</time>
      </trkpt>
      <trkpt lat="42.31399" lon="2.38984">
        <ele>1051.283</ele>
        <time>2015-06-06T04:30:34Z</time>
      </trkpt>
      <trkpt lat="42.31405" lon="2.38998">
        <ele>1051.475</ele>
        <time>2015-06-06T04:30:39Z</time>
      </trkpt>
      <trkpt lat="42.3141" lon="2.39011">
        <ele>1051.754</ele>
        <time>2015-06-06T04:30:44Z</time>
      </trkpt>
      <trkpt lat="42.31415" lon="2.39024">
        <ele>1051.838</ele>
        <time>2015-06-06T04:30:49Z</time>
      </trkpt>
      <trkpt lat="42.31421" lon="2.39037">
        <ele>1051.87</ele>
        <time>2015-06-06T04:30:54Z</time>
      </trkpt>
      <trkpt lat="42.31429" lon="2.3905">
        <ele>1052.217</ele>
        <time>2015-06-06T04:30:59Z</time>
      </trkpt>
      <trkpt lat="42.31436" lon="2.39064">
        <ele>1052.507</ele>
        <time>2015-06-06T04:31:04Z</time>
      </trkpt>
      <trkpt lat="42.31439" lon="2.39079">
        <ele>1052.912</ele>
        <time>2015-06-06T04:31:09Z</time>
      </trkpt>
      <trkpt lat="42.31444" lon="2.39091">
        <ele>1053.032</ele>
        <time>2015-06-06T04:31:14Z</time>
      </trkpt>
      <trkpt lat="42.31449" lon="2.39104">
        <ele>1053.456</ele>
        <time>2015-06-06T04:31:19Z</time>
      </trkpt>
      <trkpt lat="42.31455" lon="2.39117">
        <ele>1053.911</ele>
        <time>2015-06-06T04:31:24Z</time>
      </trkpt>
      <trkpt lat="42.31462" lon="2.39129">
        <ele>1054.584</ele>
        <time>2015-06-06T04:31:29Z</time>
      </trkpt>
      <trkpt lat="42.31468" lon="2.39143">
        <ele>1054.846</ele>
        <time>2015-06-06T04:31:34Z</time>
      </trkpt>
      <trkpt lat="42.31476" lon="2.39156">
        <ele>1054.995</ele>
        <time>2015-06-06T04:31:39Z</time>
      </trkpt>
      <trkpt lat="42.31484" lon="2.39169">
        <ele>1055.214</ele>
        <time>2015-06-06T04:31:44Z</time>
      </trkpt>
      <trkpt lat="42.31494" lon="2.39179">
        <ele>1055.554</ele>
        <time>2015-06-06T04:31:49Z</time>
      </trkpt>
      <trkpt lat="42.31503" lon="2.39192">
        <ele>1055.909</ele>
        <time>2015-06-06T04:31:55Z</time>
      </trkpt>
      <trkpt lat="42.31514" lon="2.39204">
        <ele>1056.507</ele>
        <time>2015-06-06T04:32:01Z</time>
      </trkpt>
      <trkpt lat="42.31525" lon="2.39215">
        <ele>1057.17</ele>
        <time>2015-06-06T04:32:07Z</time>
      </trkpt>
      <trkpt lat="42.31532" lon="2.39227">
        <ele>1057.79</ele>
        <time>2015-06-06T04:32:12Z</time>
      </trkpt>
      <trkpt lat="42.31541" lon="2.39239">
        <ele>1058.314</ele>
        <time>2015-06-06T04:32:18Z</time>
      </trkpt>
      <trkpt lat="42.31547" lon="2.39252">
        <ele>1059.079</ele>
        <time>2015-06-06T04:32:25Z</time>
      </trkpt>
      <trkpt lat="42.31555" lon="2.39265">
        <ele>1059.732</ele>
        <time>2015-06-06T04:32:32Z</time>
      </trkpt>
      <trkpt lat="42.3156" lon="2.39278">
        <ele>1060.664</ele>
        <time>2015-06-06T04:32:38Z</time>
      </trkpt>
      <trkpt lat="42.31567" lon="2.39291">
        <ele>1061.493</ele>
        <time>2015-06-06T04:32:44Z</time>
      </trkpt>
      <trkpt lat="42.31573" lon="2.39305">
        <ele>1061.892</ele>
        <time>2015-06-06T04:32:50Z</time>
      </trkpt>
      <trkpt lat="42.31577" lon="2.3932">
        <ele>1062.573</ele>
        <time>2015-06-06T04:32:56Z</time>
      </trkpt>
      <trkpt lat="42.3158" lon="2.39332">
        <ele>1062.82</ele>
        <time>2015-06-06T04:33:01Z</time>
      </trkpt>
      <trkpt lat="42.31584" lon="2.39346">
        <ele>1063.007</ele>
        <time>2015-06-06T04:33:06Z</time>
      </trkpt>
      <trkpt lat="42.31587" lon="2.39361">
        <ele>1063.068</ele>
        <time>2015-06-06T04:33:11Z</time>
      </trkpt>
      <trkpt lat="42.3159" lon="2.39374">
        <ele>1063.188</ele>
        <time>2015-06-06T04:33:16Z</time>
      </trkpt>
      <trkpt lat="42.31594" lon="2.39389">
        <ele>1063.492</ele>
        <time>2015-06-06T04:33:22Z</time>
      </trkpt>
      <trkpt lat="42.31599" lon="2.39403">
        <ele>1063.767</ele>
        <time>2015-06-06T04:33:28Z</time>
      </trkpt>
      <trkpt lat="42.31604" lon="2.39416">
        <ele>1064.04</ele>
        <time>2015-06-06T04:33:34Z</time>
      </trkpt>
      <trkpt lat="42.3161" lon="2.3943">
        <ele>1064.442</ele>
        <time>2015-06-06T04:33:40Z</time>
      </trkpt>
      <trkpt lat="42.31617" lon="2.39441">
        <ele>1064.691</ele>
        <time>2015-06-06T04:33:48Z</time>
      </trkpt>
      <trkpt lat="42.31624" lon="2.3944">
        <ele>1064.298</ele>
        <time>2015-06-06T04:34:39Z</time>
      </trkpt>
      <trkpt lat="42.31627" lon="2.39436">
        <ele>1063.915</ele>
        <time>2015-06-06T04:35:14Z</time>
      </trkpt>
      <trkpt lat="42.31618" lon="2.39435">
        <ele>1064.226</ele>
        <time>2015-06-06T04:35:28Z</time>
      </trkpt>
      <trkpt lat="42.31625" lon="2.39438">
        <ele>1064.707</ele>
        <time>2015-06-06T04:35:57Z</time>
      </trkpt>
      <trkpt lat="42.31633" lon="2.39452">
        <ele>1064.918</ele>
        <time>2015-06-06T04:36:06Z</time>
      </trkpt>
      <trkpt lat="42.31641" lon="2.39464">
        <ele>1064.688</ele>
        <time>2015-06-06T04:36:12Z</time>
      </trkpt>
      <trkpt lat="42.3165" lon="2.39479">
        <ele>1064.442</ele>
        <time>2015-06-06T04:36:17Z</time>
      </trkpt>
      <trkpt lat="42.3166" lon="2.39493">
        <ele>1064.327</ele>
        <time>2015-06-06T04:36:21Z</time>
      </trkpt>
      <trkpt lat="42.31666" lon="2.39509">
        <ele>1064.23</ele>
        <time>2015-06-06T04:36:25Z</time>
      </trkpt>
      <trkpt lat="42.31673" lon="2.39523">
        <ele>1064.352</ele>
        <time>2015-06-06T04:36:30Z</time>
      </trkpt>
      <trkpt lat="42.31682" lon="2.39535">
        <ele>1064.241</ele>
        <time>2015-06-06T04:36:34Z</time>
      </trkpt>
      <trkpt lat="42.31694" lon="2.39544">
        <ele>1064.123</ele>
        <time>2015-06-06T04:36:38Z</time>
      </trkpt>
      <trkpt lat="42.31708" lon="2.39549">
        <ele>1063.983</ele>
        <time>2015-06-06T04:36:43Z</time>
      </trkpt>
      <trkpt lat="42.3172" lon="2.39555">
        <ele>1064.211</ele>
        <time>2015-06-06T04:36:47Z</time>
      </trkpt>
      <trkpt lat="42.31729" lon="2.39566">
        <ele>1064.507</ele>
        <time>2015-06-06T04:36:51Z</time>
      </trkpt>
      <trkpt lat="42.31739" lon="2.39578">
        <ele>1064.641</ele>
        <time>2015-06-06T04:36:55Z</time>
      </trkpt>
      <trkpt lat="42.3175" lon="2.39589">
        <ele>1064.881</ele>
        <time>2015-06-06T04:36:59Z</time>
      </trkpt>
      <trkpt lat="42.31758" lon="2.39601">
        <ele>1064.955</ele>
        <time>2015-06-06T04:37:03Z</time>
      </trkpt>
      <trkpt lat="42.31766" lon="2.39612">
        <ele>1065.27</ele>
        <time>2015-06-06T04:37:07Z</time>
      </trkpt>
      <trkpt lat="42.31776" lon="2.39623">
        <ele>1065.873</ele>
        <time>2015-06-06T04:37:12Z</time>
      </trkpt>
      <trkpt lat="42.31784" lon="2.39634">
        <ele>1066.555</ele>
        <time>2015-06-06T04:37:17Z</time>
      </trkpt>
      <trkpt lat="42.31791" lon="2.39646">
        <ele>1066.884</ele>
        <time>2015-06-06T04:37:22Z</time>
      </trkpt>
      <trkpt lat="42.31796" lon="2.39658">
        <ele>1067.596</ele>
        <time>2015-06-06T04:37:27Z</time>
      </trkpt>
      <trkpt lat="42.31802" lon="2.3967">
        <ele>1068.331</ele>
        <time>2015-06-06T04:37:32Z</time>
      </trkpt>
      <trkpt lat="42.31808" lon="2.39682">
        <ele>1069.124</ele>
        <time>2015-06-06T04:37:38Z</time>
      </trkpt>
      <trkpt lat="42.31813" lon="2.39693">
        <ele>1069.807</ele>
        <time>2015-06-06T04:37:44Z</time>
      </trkpt>
      <trkpt lat="42.31819" lon="2.39703">
        <ele>1070.438</ele>
        <time>2015-06-06T04:37:50Z</time>
      </trkpt>
      <trkpt lat="42.31823" lon="2.39716">
        <ele>1071.418</ele>
        <time>2015-06-06T04:37:56Z</time>
      </trkpt>
      <trkpt lat="42.31828" lon="2.39727">
        <ele>1072.052</ele>
        <time>2015-06-06T04:38:02Z</time>
      </trkpt>
      <trkpt lat="42.31834" lon="2.39738">
        <ele>1072.897</ele>
        <time>2015-06-06T04:38:08Z</time>
      </trkpt>
      <trkpt lat="42.31843" lon="2.39747">
        <ele>1073.36</ele>
        <time>2015-06-06T04:38:14Z</time>
      </trkpt>
      <trkpt lat="42.31852" lon="2.39754">
        <ele>1074.162</ele>
        <time>2015-06-06T04:38:21Z</time>
      </trkpt>
      <trkpt lat="42.3186" lon="2.39763">
        <ele>1075.241</ele>
        <time>2015-06-06T04:38:29Z</time>
      </trkpt>
      <trkpt lat="42.3187" lon="2.39772">
        <ele>1075.826</ele>
        <time>2015-06-06T04:38:38Z</time>
      </trkpt>
      <trkpt lat="42.3188" lon="2.39779">
        <ele>1076.647</ele>
        <time>2015-06-06T04:38:46Z</time>
      </trkpt>
      <trkpt lat="42.31888" lon="2.39788">
        <ele>1077.511</ele>
        <time>2015-06-06T04:38:55Z</time>
      </trkpt>
      <trkpt lat="42.31897" lon="2.398">
        <ele>1078.607</ele>
        <time>2015-06-06T04:39:03Z</time>
      </trkpt>
      <trkpt lat="42.31904" lon="2.39811">
        <ele>1079.641</ele>
        <time>2015-06-06T04:39:11Z</time>
      </trkpt>
      <trkpt lat="42.31911" lon="2.39823">
        <ele>1080.531</ele>
        <time>2015-06-06T04:39:19Z</time>
      </trkpt>
      <trkpt lat="42.31917" lon="2.39834">
        <ele>1081.715</ele>
        <time>2015-06-06T04:39:26Z</time>
      </trkpt>
      <trkpt lat="42.31924" lon="2.39844">
        <ele>1082.96</ele>
        <time>2015-06-06T04:39:34Z</time>
      </trkpt>
      <trkpt lat="42.3193" lon="2.39855">
        <ele>1084.533</ele>
        <time>2015-06-06T04:39:43Z</time>
      </trkpt>
      <trkpt lat="42.31937" lon="2.39865">
        <ele>1085.885</ele>
        <time>2015-06-06T04:39:52Z</time>
      </trkpt>
      <trkpt lat="42.31943" lon="2.39874">
        <ele>1086.914</ele>
        <time>2015-06-06T04:40:01Z</time>
      </trkpt>
      <trkpt lat="42.31949" lon="2.39884">
        <ele>1088.154</ele>
        <time>2015-06-06T04:40:10Z</time>
      </trkpt>
      <trkpt lat="42.31956" lon="2.39892">
        <ele>1089.556</ele>
        <time>2015-06-06T04:40:19Z</time>
      </trkpt>
      <trkpt lat="42.3196" lon="2.39904">
        <ele>1090.711</ele>
        <time>2015-06-06T04:40:28Z</time>
      </trkpt>
      <trkpt lat="42.31965" lon="2.39915">
        <ele>1092.007</ele>
        <time>2015-06-06T04:40:37Z</time>
      </trkpt>
      <trkpt lat="42.31972" lon="2.39922">
        <ele>1093.154</ele>
        <time>2015-06-06T04:40:45Z</time>
      </trkpt>
      <trkpt lat="42.31975" lon="2.39934">
        <ele>1094.834</ele>
        <time>2015-06-06T04:40:54Z</time>
      </trkpt>
      <trkpt lat="42.31982" lon="2.39942">
        <ele>1096.178</ele>
        <time>2015-06-06T04:41:02Z</time>
      </trkpt>
      <trkpt lat="42.31987" lon="2.39952">
        <ele>1097.143</ele>
        <time>2015-06-06T04:41:11Z</time>
      </trkpt>
      <trkpt lat="42.31994" lon="2.39961">
        <ele>1098.216</ele>
        <time>2015-06-06T04:41:20Z</time>
      </trkpt>
      <trkpt lat="42.32002" lon="2.39968">
        <ele>1099.318</ele>
        <time>2015-06-06T04:41:28Z</time>
      </trkpt>
      <trkpt lat="42.3201" lon="2.39975">
        <ele>1100.157</ele>
        <time>2015-06-06T04:41:36Z</time>
      </trkpt>
      <trkpt lat="42.32018" lon="2.39982">
        <ele>1100.947</ele>
        <time>2015-06-06T04:41:44Z</time>
      </trkpt>
      <trkpt lat="42.32024" lon="2.3999">
        <ele>1101.529</ele>
        <time>2015-06-06T04:41:52Z</time>
      </trkpt>
      <trkpt lat="42.32032" lon="2.39997">
        <ele>1102.221</ele>
        <time>2015-06-06T04:42:01Z</time>
      </trkpt>
      <trkpt lat="42.3204" lon="2.40007">
        <ele>1103.307</ele>
        <time>2015-06-06T04:42:10Z</time>
      </trkpt>
      <trkpt lat="42.32049" lon="2.40016">
        <ele>1104.373</ele>
        <time>2015-06-06T04:42:19Z</time>
      </trkpt>
      <trkpt lat="42.32054" lon="2.40028">
        <ele>1105.593</ele>
        <time>2015-06-06T04:42:29Z</time>
      </trkpt>
      <trkpt lat="42.3206" lon="2.40038">
        <ele>1106.697</ele>
        <time>2015-06-06T04:42:38Z</time>
      </trkpt>
      <trkpt lat="42.32063" lon="2.40053">
        <ele>1107.742</ele>
        <time>2015-06-06T04:42:49Z</time>
      </trkpt>
      <trkpt lat="42.32065" lon="2.40068">
        <ele>1108.935</ele>
        <time>2015-06-06T04:42:59Z</time>
      </trkpt>
      <trkpt lat="42.32069" lon="2.40081">
        <ele>1109.947</ele>
        <time>2015-06-06T04:43:08Z</time>
      </trkpt>
      <trkpt lat="42.32073" lon="2.40095">
        <ele>1111.276</ele>
        <time>2015-06-06T04:43:17Z</time>
      </trkpt>
      <trkpt lat="42.32077" lon="2.40107">
        <ele>1112.377</ele>
        <time>2015-06-06T04:43:26Z</time>
      </trkpt>
      <trkpt lat="42.32082" lon="2.40119">
        <ele>1113.161</ele>
        <time>2015-06-06T04:43:34Z</time>
      </trkpt>
      <trkpt lat="42.32085" lon="2.40132">
        <ele>1114.027</ele>
        <time>2015-06-06T04:43:42Z</time>
      </trkpt>
      <trkpt lat="42.32089" lon="2.40144">
        <ele>1115.007</ele>
        <time>2015-06-06T04:43:50Z</time>
      </trkpt>
      <trkpt lat="42.3209" lon="2.40158">
        <ele>1115.936</ele>
        <time>2015-06-06T04:43:59Z</time>
      </trkpt>
      <trkpt lat="42.32093" lon="2.40171">
        <ele>1117.166</ele>
        <time>2015-06-06T04:44:08Z</time>
      </trkpt>
      <trkpt lat="42.32096" lon="2.40183">
        <ele>1118.12</ele>
        <time>2015-06-06T04:44:17Z</time>
      </trkpt>
      <trkpt lat="42.32097" lon="2.40197">
        <ele>1119.415</ele>
        <time>2015-06-06T04:44:26Z</time>
      </trkpt>
      <trkpt lat="42.321" lon="2.4021">
        <ele>1120.678</ele>
        <time>2015-06-06T04:44:34Z</time>
      </trkpt>
      <trkpt lat="42.32102" lon="2.40223">
        <ele>1121.89</ele>
        <time>2015-06-06T04:44:42Z</time>
      </trkpt>
      <trkpt lat="42.32105" lon="2.40237">
        <ele>1122.599</ele>
        <time>2015-06-06T04:44:51Z</time>
      </trkpt>
      <trkpt lat="42.32108" lon="2.40251">
        <ele>1124.227</ele>
        <time>2015-06-06T04:45:01Z</time>
      </trkpt>
      <trkpt lat="42.32113" lon="2.40264">
        <ele>1125.068</ele>
        <time>2015-06-06T04:45:11Z</time>
      </trkpt>
      <trkpt lat="42.32117" lon="2.40279">
        <ele>1126.514</ele>
        <time>2015-06-06T04:45:21Z</time>
      </trkpt>
      <trkpt lat="42.32118" lon="2.40292">
        <ele>1127.507</ele>
        <time>2015-06-06T04:45:31Z</time>
      </trkpt>
      <trkpt lat="42.32123" lon="2.40307">
        <ele>1129.061</ele>
        <time>2015-06-06T04:45:42Z</time>
      </trkpt>
      <trkpt lat="42.32128" lon="2.40322">
        <ele>1129.811</ele>
        <time>2015-06-06T04:45:51Z</time>
      </trkpt>
      <trkpt lat="42.32132" lon="2.40337">
        <ele>1130.395</ele>
        <time>2015-06-06T04:46:00Z</time>
      </trkpt>
      <trkpt lat="42.32135" lon="2.4035">
        <ele>1130.89</ele>
        <time>2015-06-06T04:46:09Z</time>
      </trkpt>
      <trkpt lat="42.32139" lon="2.40364">
        <ele>1132.183</ele>
        <time>2015-06-06T04:46:18Z</time>
      </trkpt>
      <trkpt lat="42.32141" lon="2.40378">
        <ele>1133.235</ele>
        <time>2015-06-06T04:46:27Z</time>
      </trkpt>
      <trkpt lat="42.32146" lon="2.4039">
        <ele>1134.074</ele>
        <time>2015-06-06T04:46:35Z</time>
      </trkpt>
      <trkpt lat="42.32149" lon="2.40405">
        <ele>1134.953</ele>
        <time>2015-06-06T04:46:44Z</time>
      </trkpt>
      <trkpt lat="42.32152" lon="2.40418">
        <ele>1135.804</ele>
        <time>2015-06-06T04:46:52Z</time>
      </trkpt>
      <trkpt lat="42.32157" lon="2.4043">
        <ele>1136.614</ele>
        <time>2015-06-06T04:47:00Z</time>
      </trkpt>
      <trkpt lat="42.32163" lon="2.40441">
        <ele>1137.007</ele>
        <time>2015-06-06T04:47:07Z</time>
      </trkpt>
      <trkpt lat="42.32169" lon="2.40453">
        <ele>1137.534</ele>
        <time>2015-06-06T04:47:15Z</time>
      </trkpt>
      <trkpt lat="42.32175" lon="2.40465">
        <ele>1138.284</ele>
        <time>2015-06-06T04:47:23Z</time>
      </trkpt>
      <trkpt lat="42.32181" lon="2.40475">
        <ele>1138.748</ele>
        <time>2015-06-06T04:47:30Z</time>
      </trkpt>
      <trkpt lat="42.32185" lon="2.40486">
        <ele>1139.163</ele>
        <time>2015-06-06T04:47:37Z</time>
      </trkpt>
      <trkpt lat="42.32191" lon="2.40498">
        <ele>1139.936</ele>
        <time>2015-06-06T04:47:45Z</time>
      </trkpt>
      <trkpt lat="42.32197" lon="2.40509">
        <ele>1140.938</ele>
        <time>2015-06-06T04:47:53Z</time>
      </trkpt>
      <trkpt lat="42.32203" lon="2.40521">
        <ele>1141.797</ele>
        <time>2015-06-06T04:48:01Z</time>
      </trkpt>
      <trkpt lat="42.32209" lon="2.40531">
        <ele>1142.296</ele>
        <time>2015-06-06T04:48:08Z</time>
      </trkpt>
      <trkpt lat="42.32215" lon="2.40541">
        <ele>1143.031</ele>
        <time>2015-06-06T04:48:15Z</time>
      </trkpt>
      <trkpt lat="42.3222" lon="2.40553">
        <ele>1143.624</ele>
        <time>2015-06-06T04:48:23Z</time>
      </trkpt>
      <trkpt lat="42.32227" lon="2.40563">
        <ele>1144.207</ele>
        <time>2015-06-06T04:48:31Z</time>
      </trkpt>
      <trkpt lat="42.32234" lon="2.40574">
        <ele>1144.768</ele>
        <time>2015-06-06T04:48:38Z</time>
      </trkpt>
      <trkpt lat="42.32239" lon="2.40585">
        <ele>1145.028</ele>
        <time>2015-06-06T04:48:44Z</time>
      </trkpt>
      <trkpt lat="42.32245" lon="2.40597">
        <ele>1145.532</ele>
        <time>2015-06-06T04:48:50Z</time>
      </trkpt>
      <trkpt lat="42.32252" lon="2.40608">
        <ele>1145.947</ele>
        <time>2015-06-06T04:48:56Z</time>
      </trkpt>
      <trkpt lat="42.32258" lon="2.4062">
        <ele>1146.38</ele>
        <time>2015-06-06T04:49:02Z</time>
      </trkpt>
      <trkpt lat="42.32265" lon="2.40632">
        <ele>1146.992</ele>
        <time>2015-06-06T04:49:08Z</time>
      </trkpt>
      <trkpt lat="42.32271" lon="2.40643">
        <ele>1147.471</ele>
        <time>2015-06-06T04:49:14Z</time>
      </trkpt>
      <trkpt lat="42.32276" lon="2.40655">
        <ele>1147.996</ele>
        <time>2015-06-06T04:49:20Z</time>
      </trkpt>
      <trkpt lat="42.3228" lon="2.40667">
        <ele>1148.731</ele>
        <time>2015-06-06T04:49:26Z</time>
      </trkpt>
      <trkpt lat="42.32285" lon="2.40678">
        <ele>1149.724</ele>
        <time>2015-06-06T04:49:33Z</time>
      </trkpt>
      <trkpt lat="42.32289" lon="2.40691">
        <ele>1150.407</ele>
        <time>2015-06-06T04:49:41Z</time>
      </trkpt>
      <trkpt lat="42.32294" lon="2.40703">
        <ele>1151.148</ele>
        <time>2015-06-06T04:49:49Z</time>
      </trkpt>
      <trkpt lat="42.32298" lon="2.40715">
        <ele>1152.348</ele>
        <time>2015-06-06T04:49:58Z</time>
      </trkpt>
      <trkpt lat="42.32301" lon="2.40728">
        <ele>1153.962</ele>
        <time>2015-06-06T04:50:08Z</time>
      </trkpt>
      <trkpt lat="42.32309" lon="2.40739">
        <ele>1155.697</ele>
        <time>2015-06-06T04:50:18Z</time>
      </trkpt>
      <trkpt lat="42.32322" lon="2.40746">
        <ele>1156.53</ele>
        <time>2015-06-06T04:50:27Z</time>
      </trkpt>
      <trkpt lat="42.32332" lon="2.40748">
        <ele>1157.592</ele>
        <time>2015-06-06T04:50:35Z</time>
      </trkpt>
      <trkpt lat="42.32342" lon="2.40748">
        <ele>1158.391</ele>
        <time>2015-06-06T04:50:44Z</time>
      </trkpt>
      <trkpt lat="42.32353" lon="2.40745">
        <ele>1158.736</ele>
        <time>2015-06-06T04:50:53Z</time>
      </trkpt>
      <trkpt lat="42.32364" lon="2.40746">
        <ele>1160.117</ele>
        <time>2015-06-06T04:51:03Z</time>
      </trkpt>
      <trkpt lat="42.32374" lon="2.40744">
        <ele>1160.918</ele>
        <time>2015-06-06T04:51:11Z</time>
      </trkpt>
      <trkpt lat="42.32386" lon="2.40743">
        <ele>1162.107</ele>
        <time>2015-06-06T04:51:22Z</time>
      </trkpt>
      <trkpt lat="42.32398" lon="2.40744">
        <ele>1163.442</ele>
        <time>2015-06-06T04:51:32Z</time>
      </trkpt>
      <trkpt lat="42.32409" lon="2.40744">
        <ele>1164.612</ele>
        <time>2015-06-06T04:51:41Z</time>
      </trkpt>
      <trkpt lat="42.32415" lon="2.40756">
        <ele>1165.536</ele>
        <time>2015-06-06T04:51:50Z</time>
      </trkpt>
      <trkpt lat="42.32411" lon="2.40765">
        <ele>1166.631</ele>
        <time>2015-06-06T04:52:00Z</time>
      </trkpt>
      <trkpt lat="42.324" lon="2.40772">
        <ele>1168.044</ele>
        <time>2015-06-06T04:52:15Z</time>
      </trkpt>
      <trkpt lat="42.32385" lon="2.40781">
        <ele>1169.816</ele>
        <time>2015-06-06T04:52:28Z</time>
      </trkpt>
      <trkpt lat="42.3237" lon="2.40794">
        <ele>1172.065</ele>
        <time>2015-06-06T04:52:42Z</time>
      </trkpt>
      <trkpt lat="42.32359" lon="2.4081">
        <ele>1174.138</ele>
        <time>2015-06-06T04:52:59Z</time>
      </trkpt>
      <trkpt lat="42.3235" lon="2.40825">
        <ele>1175.57</ele>
        <time>2015-06-06T04:53:12Z</time>
      </trkpt>
      <trkpt lat="42.32341" lon="2.40842">
        <ele>1177.917</ele>
        <time>2015-06-06T04:53:26Z</time>
      </trkpt>
      <trkpt lat="42.32334" lon="2.40859">
        <ele>1179.707</ele>
        <time>2015-06-06T04:53:39Z</time>
      </trkpt>
      <trkpt lat="42.32328" lon="2.40875">
        <ele>1181.112</ele>
        <time>2015-06-06T04:53:49Z</time>
      </trkpt>
      <trkpt lat="42.32322" lon="2.40887">
        <ele>1182.952</ele>
        <time>2015-06-06T04:54:00Z</time>
      </trkpt>
      <trkpt lat="42.32316" lon="2.40904">
        <ele>1184.546</ele>
        <time>2015-06-06T04:54:13Z</time>
      </trkpt>
      <trkpt lat="42.32314" lon="2.40924">
        <ele>1185.721</ele>
        <time>2015-06-06T04:54:25Z</time>
      </trkpt>
      <trkpt lat="42.32311" lon="2.40939">
        <ele>1186.484</ele>
        <time>2015-06-06T04:54:34Z</time>
      </trkpt>
      <trkpt lat="42.32312" lon="2.40954">
        <ele>1187.346</ele>
        <time>2015-06-06T04:54:43Z</time>
      </trkpt>
      <trkpt lat="42.32313" lon="2.4097">
        <ele>1188.355</ele>
        <time>2015-06-06T04:54:53Z</time>
      </trkpt>
      <trkpt lat="42.32312" lon="2.40987">
        <ele>1189.312</ele>
        <time>2015-06-06T04:55:02Z</time>
      </trkpt>
      <trkpt lat="42.32314" lon="2.41002">
        <ele>1189.732</ele>
        <time>2015-06-06T04:55:11Z</time>
      </trkpt>
      <trkpt lat="42.32317" lon="2.4102">
        <ele>1190.505</ele>
        <time>2015-06-06T04:55:20Z</time>
      </trkpt>
      <trkpt lat="42.32319" lon="2.41037">
        <ele>1191.407</ele>
        <time>2015-06-06T04:55:30Z</time>
      </trkpt>
      <trkpt lat="42.32321" lon="2.41053">
        <ele>1191.99</ele>
        <time>2015-06-06T04:55:39Z</time>
      </trkpt>
      <trkpt lat="42.3232" lon="2.4107">
        <ele>1192.94</ele>
        <time>2015-06-06T04:55:49Z</time>
      </trkpt>
      <trkpt lat="42.32321" lon="2.4109">
        <ele>1193.934</ele>
        <time>2015-06-06T04:55:59Z</time>
      </trkpt>
      <trkpt lat="42.3232" lon="2.41109">
        <ele>1194.329</ele>
        <time>2015-06-06T04:56:07Z</time>
      </trkpt>
      <trkpt lat="42.32319" lon="2.41127">
        <ele>1194.432</ele>
        <time>2015-06-06T04:56:13Z</time>
      </trkpt>
      <trkpt lat="42.32321" lon="2.41144">
        <ele>1194.414</ele>
        <time>2015-06-06T04:56:19Z</time>
      </trkpt>
      <trkpt lat="42.32322" lon="2.41159">
        <ele>1194.753</ele>
        <time>2015-06-06T04:56:25Z</time>
      </trkpt>
      <trkpt lat="42.32322" lon="2.41171">
        <ele>1195.033</ele>
        <time>2015-06-06T04:56:31Z</time>
      </trkpt>
      <trkpt lat="42.32325" lon="2.41186">
        <ele>1195.423</ele>
        <time>2015-06-06T04:56:38Z</time>
      </trkpt>
      <trkpt lat="42.32327" lon="2.41199">
        <ele>1196.015</ele>
        <time>2015-06-06T04:56:44Z</time>
      </trkpt>
      <trkpt lat="42.32328" lon="2.41213">
        <ele>1196.307</ele>
        <time>2015-06-06T04:56:50Z</time>
      </trkpt>
      <trkpt lat="42.32327" lon="2.4123">
        <ele>1196.432</ele>
        <time>2015-06-06T04:56:57Z</time>
      </trkpt>
      <trkpt lat="42.32326" lon="2.41246">
        <ele>1196.992</ele>
        <time>2015-06-06T04:57:04Z</time>
      </trkpt>
      <trkpt lat="42.32324" lon="2.4126">
        <ele>1197.146</ele>
        <time>2015-06-06T04:57:11Z</time>
      </trkpt>
      <trkpt lat="42.32324" lon="2.41255">
        <ele>1197.281</ele>
        <time>2015-06-06T04:57:47Z</time>
      </trkpt>
      <trkpt lat="42.32324" lon="2.4124">
        <ele>1197.124</ele>
        <time>2015-06-06T04:57:52Z</time>
      </trkpt>
      <trkpt lat="42.32324" lon="2.41226">
        <ele>1196.876</ele>
        <time>2015-06-06T04:57:57Z</time>
      </trkpt>
      <trkpt lat="42.32326" lon="2.41236">
        <ele>1196.885</ele>
        <time>2015-06-06T04:58:05Z</time>
      </trkpt>
      <trkpt lat="42.32324" lon="2.4125">
        <ele>1196.781</ele>
        <time>2015-06-06T04:58:10Z</time>
      </trkpt>
      <trkpt lat="42.32322" lon="2.41266">
        <ele>1196.961</ele>
        <time>2015-06-06T04:58:15Z</time>
      </trkpt>
      <trkpt lat="42.32318" lon="2.41279">
        <ele>1196.917</ele>
        <time>2015-06-06T04:58:19Z</time>
      </trkpt>
      <trkpt lat="42.32314" lon="2.41292">
        <ele>1196.807</ele>
        <time>2015-06-06T04:58:23Z</time>
      </trkpt>
      <trkpt lat="42.32308" lon="2.41307">
        <ele>1196.797</ele>
        <time>2015-06-06T04:58:27Z</time>
      </trkpt>
      <trkpt lat="42.32299" lon="2.41319">
        <ele>1196.687</ele>
        <time>2015-06-06T04:58:31Z</time>
      </trkpt>
      <trkpt lat="42.32289" lon="2.41326">
        <ele>1196.671</ele>
        <time>2015-06-06T04:58:34Z</time>
      </trkpt>
      <trkpt lat="42.32282" lon="2.41328">
        <ele>1196.356</ele>
        <time>2015-06-06T04:58:37Z</time>
      </trkpt>
      <trkpt lat="42.32273" lon="2.41327">
        <ele>1195.699</ele>
        <time>2015-06-06T04:58:40Z</time>
      </trkpt>
      <trkpt lat="42.32258" lon="2.4133">
        <ele>1194.881</ele>
        <time>2015-06-06T04:58:43Z</time>
      </trkpt>
      <trkpt lat="42.32248" lon="2.41331">
        <ele>1193.71</ele>
        <time>2015-06-06T04:58:45Z</time>
      </trkpt>
      <trkpt lat="42.32238" lon="2.41332">
        <ele>1192.645</ele>
        <time>2015-06-06T04:58:47Z</time>
      </trkpt>
      <trkpt lat="42.32223" lon="2.41333">
        <ele>1191.147</ele>
        <time>2015-06-06T04:58:50Z</time>
      </trkpt>
      <trkpt lat="42.32213" lon="2.41333">
        <ele>1190.211</ele>
        <time>2015-06-06T04:58:52Z</time>
      </trkpt>
      <trkpt lat="42.32204" lon="2.41336">
        <ele>1188.207</ele>
        <time>2015-06-06T04:58:57Z</time>
      </trkpt>
      <trkpt lat="42.32204" lon="2.41354">
        <ele>1187.253</ele>
        <time>2015-06-06T04:59:03Z</time>
      </trkpt>
      <trkpt lat="42.32206" lon="2.41369">
        <ele>1186.973</ele>
        <time>2015-06-06T04:59:07Z</time>
      </trkpt>
      <trkpt lat="42.32209" lon="2.41385">
        <ele>1186.657</ele>
        <time>2015-06-06T04:59:11Z</time>
      </trkpt>
      <trkpt lat="42.32212" lon="2.41398">
        <ele>1186.322</ele>
        <time>2015-06-06T04:59:17Z</time>
      </trkpt>
      <trkpt lat="42.32208" lon="2.4139">
        <ele>1186.215</ele>
        <time>2015-06-06T04:59:23Z</time>
      </trkpt>
      <trkpt lat="42.32207" lon="2.41376">
        <ele>1186.247</ele>
        <time>2015-06-06T04:59:28Z</time>
      </trkpt>
      <trkpt lat="42.32213" lon="2.41373">
        <ele>1186.146</ele>
        <time>2015-06-06T04:59:50Z</time>
      </trkpt>
      <trkpt lat="42.32213" lon="2.41371">
        <ele>1185.552</ele>
        <time>2015-06-06T05:00:14Z</time>
      </trkpt>
      <trkpt lat="42.32217" lon="2.41379">
        <ele>1185.353</ele>
        <time>2015-06-06T05:00:34Z</time>
      </trkpt>
      <trkpt lat="42.32227" lon="2.41383">
        <ele>1184.908</ele>
        <time>2015-06-06T05:00:39Z</time>
      </trkpt>
      <trkpt lat="42.32236" lon="2.41389">
        <ele>1183.407</ele>
        <time>2015-06-06T05:00:43Z</time>
      </trkpt>
      <trkpt lat="42.32247" lon="2.41394">
        <ele>1181.194</ele>
        <time>2015-06-06T05:00:47Z</time>
      </trkpt>
      <trkpt lat="42.32258" lon="2.41396">
        <ele>1177.634</ele>
        <time>2015-06-06T05:00:51Z</time>
      </trkpt>
      <trkpt lat="42.32267" lon="2.41399">
        <ele>1175.618</ele>
        <time>2015-06-06T05:00:54Z</time>
      </trkpt>
      <trkpt lat="42.32276" lon="2.41405">
        <ele>1173.043</ele>
        <time>2015-06-06T05:00:58Z</time>
      </trkpt>
      <trkpt lat="42.32285" lon="2.41411">
        <ele>1170.046</ele>
        <time>2015-06-06T05:01:03Z</time>
      </trkpt>
      <trkpt lat="42.32294" lon="2.41421">
        <ele>1165.448</ele>
        <time>2015-06-06T05:01:17Z</time>
      </trkpt>
      <trkpt lat="42.32306" lon="2.41424">
        <ele>1164.147</ele>
        <time>2015-06-06T05:01:21Z</time>
      </trkpt>
      <trkpt lat="42.32316" lon="2.4143">
        <ele>1162.239</ele>
        <time>2015-06-06T05:01:25Z</time>
      </trkpt>
      <trkpt lat="42.32323" lon="2.41441">
        <ele>1160.201</ele>
        <time>2015-06-06T05:01:29Z</time>
      </trkpt>
      <trkpt lat="42.32318" lon="2.41454">
        <ele>1157.721</ele>
        <time>2015-06-06T05:01:34Z</time>
      </trkpt>
      <trkpt lat="42.32312" lon="2.41464">
        <ele>1155.807</ele>
        <time>2015-06-06T05:01:39Z</time>
      </trkpt>
      <trkpt lat="42.32311" lon="2.4148">
        <ele>1155.062</ele>
        <time>2015-06-06T05:01:52Z</time>
      </trkpt>
      <trkpt lat="42.32314" lon="2.41501">
        <ele>1154.952</ele>
        <time>2015-06-06T05:01:58Z</time>
      </trkpt>
      <trkpt lat="42.32315" lon="2.41517">
        <ele>1154.836</ele>
        <time>2015-06-06T05:02:02Z</time>
      </trkpt>
      <trkpt lat="42.32314" lon="2.41534">
        <ele>1154.521</ele>
        <time>2015-06-06T05:02:06Z</time>
      </trkpt>
      <trkpt lat="42.32312" lon="2.41551">
        <ele>1154.224</ele>
        <time>2015-06-06T05:02:09Z</time>
      </trkpt>
      <trkpt lat="42.32312" lon="2.4157">
        <ele>1153.876</ele>
        <time>2015-06-06T05:02:12Z</time>
      </trkpt>
      <trkpt lat="42.3231" lon="2.41587">
        <ele>1153.345</ele>
        <time>2015-06-06T05:02:14Z</time>
      </trkpt>
      <trkpt lat="42.32312" lon="2.41604">
        <ele>1152.812</ele>
        <time>2015-06-06T05:02:16Z</time>
      </trkpt>
      <trkpt lat="42.32316" lon="2.4162">
        <ele>1152.232</ele>
        <time>2015-06-06T05:02:18Z</time>
      </trkpt>
      <trkpt lat="42.32321" lon="2.41634">
        <ele>1151.805</ele>
        <time>2015-06-06T05:02:20Z</time>
      </trkpt>
      <trkpt lat="42.32329" lon="2.41647">
        <ele>1151.407</ele>
        <time>2015-06-06T05:02:23Z</time>
      </trkpt>
      <trkpt lat="42.32334" lon="2.41659">
        <ele>1151.34</ele>
        <time>2015-06-06T05:02:27Z</time>
      </trkpt>
      <trkpt lat="42.3234" lon="2.41676">
        <ele>1151.72</ele>
        <time>2015-06-06T05:02:32Z</time>
      </trkpt>
      <trkpt lat="42.32344" lon="2.41692">
        <ele>1152.144</ele>
        <time>2015-06-06T05:02:36Z</time>
      </trkpt>
      <trkpt lat="42.32351" lon="2.41707">
        <ele>1152.469</ele>
        <time>2015-06-06T05:02:40Z</time>
      </trkpt>
      <trkpt lat="42.32358" lon="2.41722">
        <ele>1152.782</ele>
        <time>2015-06-06T05:02:44Z</time>
      </trkpt>
      <trkpt lat="42.32362" lon="2.41738">
        <ele>1152.994</ele>
        <time>2015-06-06T05:02:48Z</time>
      </trkpt>
      <trkpt lat="42.32368" lon="2.41755">
        <ele>1152.963</ele>
        <time>2015-06-06T05:02:52Z</time>
      </trkpt>
      <trkpt lat="42.32369" lon="2.4177">
        <ele>1152.982</ele>
        <time>2015-06-06T05:02:56Z</time>
      </trkpt>
      <trkpt lat="42.32371" lon="2.41785">
        <ele>1153.043</ele>
        <time>2015-06-06T05:03:01Z</time>
      </trkpt>
      <trkpt lat="42.32372" lon="2.41798">
        <ele>1152.817</ele>
        <time>2015-06-06T05:03:06Z</time>
      </trkpt>
      <trkpt lat="42.32368" lon="2.41819">
        <ele>1152.507</ele>
        <time>2015-06-06T05:03:11Z</time>
      </trkpt>
      <trkpt lat="42.32362" lon="2.41835">
        <ele>1152.147</ele>
        <time>2015-06-06T05:03:15Z</time>
      </trkpt>
      <trkpt lat="42.32354" lon="2.41852">
        <ele>1151.827</ele>
        <time>2015-06-06T05:03:18Z</time>
      </trkpt>
      <trkpt lat="42.32349" lon="2.41863">
        <ele>1151.491</ele>
        <time>2015-06-06T05:03:20Z</time>
      </trkpt>
      <trkpt lat="42.3234" lon="2.4188">
        <ele>1150.356</ele>
        <time>2015-06-06T05:03:23Z</time>
      </trkpt>
      <trkpt lat="42.32333" lon="2.41892">
        <ele>1149.569</ele>
        <time>2015-06-06T05:03:25Z</time>
      </trkpt>
      <trkpt lat="42.32324" lon="2.41908">
        <ele>1147.891</ele>
        <time>2015-06-06T05:03:27Z</time>
      </trkpt>
      <trkpt lat="42.32317" lon="2.41922">
        <ele>1146.41</ele>
        <time>2015-06-06T05:03:29Z</time>
      </trkpt>
      <trkpt lat="42.32311" lon="2.41934">
        <ele>1144.792</ele>
        <time>2015-06-06T05:03:31Z</time>
      </trkpt>
      <trkpt lat="42.32306" lon="2.41943">
        <ele>1143.173</ele>
        <time>2015-06-06T05:03:33Z</time>
      </trkpt>
      <trkpt lat="42.32292" lon="2.41962">
        <ele>1141.02</ele>
        <time>2015-06-06T05:03:36Z</time>
      </trkpt>
      <trkpt lat="42.32289" lon="2.41971">
        <ele>1137.007</ele>
        <time>2015-06-06T05:03:45Z</time>
      </trkpt>
      <trkpt lat="42.32284" lon="2.41982">
        <ele>1136.388</ele>
        <time>2015-06-06T05:03:59Z</time>
      </trkpt>
      <trkpt lat="42.32275" lon="2.42008">
        <ele>1135.828</ele>
        <time>2015-06-06T05:04:12Z</time>
      </trkpt>
      <trkpt lat="42.32268" lon="2.42022">
        <ele>1135.392</ele>
        <time>2015-06-06T05:04:14Z</time>
      </trkpt>
      <trkpt lat="42.32263" lon="2.42033">
        <ele>1134.657</ele>
        <time>2015-06-06T05:04:16Z</time>
      </trkpt>
      <trkpt lat="42.32263" lon="2.42051">
        <ele>1132.82</ele>
        <time>2015-06-06T05:04:20Z</time>
      </trkpt>
      <trkpt lat="42.32271" lon="2.4206">
        <ele>1132.092</ele>
        <time>2015-06-06T05:04:24Z</time>
      </trkpt>
      <trkpt lat="42.32276" lon="2.42072">
        <ele>1131.631</ele>
        <time>2015-06-06T05:04:28Z</time>
      </trkpt>
      <trkpt lat="42.32282" lon="2.42071">
        <ele>1131.482</ele>
        <time>2015-06-06T05:04:34Z</time>
      </trkpt>
      <trkpt lat="42.32294" lon="2.42067">
        <ele>1131.243</ele>
        <time>2015-06-06T05:04:38Z</time>
      </trkpt>
      <trkpt lat="42.32303" lon="2.42066">
        <ele>1131.017</ele>
        <time>2015-06-06T05:04:41Z</time>
      </trkpt>
      <trkpt lat="42.32314" lon="2.42066">
        <ele>1130.907</ele>
        <time>2015-06-06T05:04:44Z</time>
      </trkpt>
      <trkpt lat="42.32324" lon="2.42065">
        <ele>1130.877</ele>
        <time>2015-06-06T05:04:47Z</time>
      </trkpt>
      <trkpt lat="42.32334" lon="2.42065">
        <ele>1130.977</ele>
        <time>2015-06-06T05:04:50Z</time>
      </trkpt>
      <trkpt lat="42.32343" lon="2.42064">
        <ele>1130.791</ele>
        <time>2015-06-06T05:04:53Z</time>
      </trkpt>
      <trkpt lat="42.32354" lon="2.42062">
        <ele>1130.776</ele>
        <time>2015-06-06T05:04:57Z</time>
      </trkpt>
      <trkpt lat="42.32365" lon="2.42061">
        <ele>1131.079</ele>
        <time>2015-06-06T05:05:01Z</time>
      </trkpt>
      <trkpt lat="42.32377" lon="2.42061">
        <ele>1131.421</ele>
        <time>2015-06-06T05:05:05Z</time>
      </trkpt>
      <trkpt lat="42.32388" lon="2.4206">
        <ele>1131.92</ele>
        <time>2015-06-06T05:05:09Z</time>
      </trkpt>
      <trkpt lat="42.32399" lon="2.42058">
        <ele>1132.132</ele>
        <time>2015-06-06T05:05:13Z</time>
      </trkpt>
      <trkpt lat="42.32411" lon="2.42058">
        <ele>1132.492</ele>
        <time>2015-06-06T05:05:17Z</time>
      </trkpt>
      <trkpt lat="42.32423" lon="2.42058">
        <ele>1132.711</ele>
        <time>2015-06-06T05:05:21Z</time>
      </trkpt>
      <trkpt lat="42.32435" lon="2.42059">
        <ele>1132.907</ele>
        <time>2015-06-06T05:05:25Z</time>
      </trkpt>
      <trkpt lat="42.32448" lon="2.4206">
        <ele>1133.242</ele>
        <time>2015-06-06T05:05:29Z</time>
      </trkpt>
      <trkpt lat="42.32457" lon="2.42063">
        <ele>1133.332</ele>
        <time>2015-06-06T05:05:32Z</time>
      </trkpt>
      <trkpt lat="42.32467" lon="2.42066">
        <ele>1133.556</ele>
        <time>2015-06-06T05:05:35Z</time>
      </trkpt>
      <trkpt lat="42.32478" lon="2.4207">
        <ele>1133.461</ele>
        <time>2015-06-06T05:05:38Z</time>
      </trkpt>
      <trkpt lat="42.32491" lon="2.42073">
        <ele>1133.284</ele>
        <time>2015-06-06T05:05:41Z</time>
      </trkpt>
      <trkpt lat="42.32501" lon="2.42076">
        <ele>1132.936</ele>
        <time>2015-06-06T05:05:43Z</time>
      </trkpt>
      <trkpt lat="42.32513" lon="2.42079">
        <ele>1132.415</ele>
        <time>2015-06-06T05:05:45Z</time>
      </trkpt>
      <trkpt lat="42.32525" lon="2.42084">
        <ele>1131.984</ele>
        <time>2015-06-06T05:05:47Z</time>
      </trkpt>
      <trkpt lat="42.32539" lon="2.42089">
        <ele>1131.307</ele>
        <time>2015-06-06T05:05:49Z</time>
      </trkpt>
      <trkpt lat="42.32553" lon="2.42096">
        <ele>1130.517</ele>
        <time>2015-06-06T05:05:51Z</time>
      </trkpt>
      <trkpt lat="42.32567" lon="2.42104">
        <ele>1129.707</ele>
        <time>2015-06-06T05:05:53Z</time>
      </trkpt>
      <trkpt lat="42.32581" lon="2.42109">
        <ele>1128.897</ele>
        <time>2015-06-06T05:05:55Z</time>
      </trkpt>
      <trkpt lat="42.32594" lon="2.42105">
        <ele>1127.937</ele>
        <time>2015-06-06T05:05:57Z</time>
      </trkpt>
      <trkpt lat="42.32602" lon="2.42095">
        <ele>1127.671</ele>
        <time>2015-06-06T05:05:59Z</time>
      </trkpt>
      <trkpt lat="42.32607" lon="2.42085">
        <ele>1127.496</ele>
        <time>2015-06-06T05:06:01Z</time>
      </trkpt>
      <trkpt lat="42.32612" lon="2.42072">
        <ele>1127.759</ele>
        <time>2015-06-06T05:06:04Z</time>
      </trkpt>
      <trkpt lat="42.32616" lon="2.42061">
        <ele>1128.271</ele>
        <time>2015-06-06T05:06:07Z</time>
      </trkpt>
      <trkpt lat="42.32622" lon="2.42047">
        <ele>1128.68</ele>
        <time>2015-06-06T05:06:11Z</time>
      </trkpt>
      <trkpt lat="42.32628" lon="2.42035">
        <ele>1129.179</ele>
        <time>2015-06-06T05:06:15Z</time>
      </trkpt>
      <trkpt lat="42.32634" lon="2.42024">
        <ele>1129.705</ele>
        <time>2015-06-06T05:06:19Z</time>
      </trkpt>
      <trkpt lat="42.3264" lon="2.42013">
        <ele>1130.325</ele>
        <time>2015-06-06T05:06:23Z</time>
      </trkpt>
      <trkpt lat="42.32646" lon="2.42005">
        <ele>1131.007</ele>
        <time>2015-06-06T05:06:28Z</time>
      </trkpt>
      <trkpt lat="42.32654" lon="2.42001">
        <ele>1131.756</ele>
        <time>2015-06-06T05:06:34Z</time>
      </trkpt>
      <trkpt lat="42.32655" lon="2.42013">
        <ele>1133.286</ele>
        <time>2015-06-06T05:07:24Z</time>
      </trkpt>
      <trkpt lat="42.32654" lon="2.42025">
        <ele>1133.48</ele>
        <time>2015-06-06T05:07:30Z</time>
      </trkpt>
      <trkpt lat="42.32653" lon="2.42039">
        <ele>1133.895</ele>
        <time>2015-06-06T05:07:36Z</time>
      </trkpt>
      <trkpt lat="42.32653" lon="2.42054">
        <ele>1134.958</ele>
        <time>2015-06-06T05:07:42Z</time>
      </trkpt>
      <trkpt lat="42.32654" lon="2.42068">
        <ele>1135.52</ele>
        <time>2015-06-06T05:07:48Z</time>
      </trkpt>
      <trkpt lat="42.32654" lon="2.42083">
        <ele>1136.129</ele>
        <time>2015-06-06T05:07:54Z</time>
      </trkpt>
      <trkpt lat="42.32655" lon="2.42097">
        <ele>1136.953</ele>
        <time>2015-06-06T05:08:00Z</time>
      </trkpt>
      <trkpt lat="42.32656" lon="2.42111">
        <ele>1137.604</ele>
        <time>2015-06-06T05:08:06Z</time>
      </trkpt>
      <trkpt lat="42.32658" lon="2.42125">
        <ele>1138.114</ele>
        <time>2015-06-06T05:08:12Z</time>
      </trkpt>
      <trkpt lat="42.32661" lon="2.42139">
        <ele>1138.807</ele>
        <time>2015-06-06T05:08:18Z</time>
      </trkpt>
      <trkpt lat="42.32666" lon="2.42153">
        <ele>1139.684</ele>
        <time>2015-06-06T05:08:24Z</time>
      </trkpt>
      <trkpt lat="42.32672" lon="2.42164">
        <ele>1140.274</ele>
        <time>2015-06-06T05:08:30Z</time>
      </trkpt>
      <trkpt lat="42.32678" lon="2.42176">
        <ele>1140.768</ele>
        <time>2015-06-06T05:08:36Z</time>
      </trkpt>
      <trkpt lat="42.32686" lon="2.42186">
        <ele>1141.453</ele>
        <time>2015-06-06T05:08:42Z</time>
      </trkpt>
      <trkpt lat="42.32694" lon="2.42196">
        <ele>1141.996</ele>
        <time>2015-06-06T05:08:48Z</time>
      </trkpt>
      <trkpt lat="42.32702" lon="2.42205">
        <ele>1142.488</ele>
        <time>2015-06-06T05:08:54Z</time>
      </trkpt>
      <trkpt lat="42.32709" lon="2.42213">
        <ele>1142.887</ele>
        <time>2015-06-06T05:08:59Z</time>
      </trkpt>
      <trkpt lat="42.32717" lon="2.42222">
        <ele>1143.726</ele>
        <time>2015-06-06T05:09:05Z</time>
      </trkpt>
      <trkpt lat="42.32725" lon="2.42231">
        <ele>1144.347</ele>
        <time>2015-06-06T05:09:10Z</time>
      </trkpt>
      <trkpt lat="42.32732" lon="2.4224">
        <ele>1144.811</ele>
        <time>2015-06-06T05:09:15Z</time>
      </trkpt>
      <trkpt lat="42.32738" lon="2.42251">
        <ele>1145.007</ele>
        <time>2015-06-06T05:09:20Z</time>
      </trkpt>
      <trkpt lat="42.32743" lon="2.42263">
        <ele>1145.461</ele>
        <time>2015-06-06T05:09:25Z</time>
      </trkpt>
      <trkpt lat="42.32747" lon="2.42276">
        <ele>1145.691</ele>
        <time>2015-06-06T05:09:30Z</time>
      </trkpt>
      <trkpt lat="42.3275" lon="2.42289">
        <ele>1145.955</ele>
        <time>2015-06-06T05:09:35Z</time>
      </trkpt>
      <trkpt lat="42.32752" lon="2.42303">
        <ele>1146.26</ele>
        <time>2015-06-06T05:09:40Z</time>
      </trkpt>
      <trkpt lat="42.32755" lon="2.42317">
        <ele>1146.613</ele>
        <time>2015-06-06T05:09:44Z</time>
      </trkpt>
      <trkpt lat="42.32757" lon="2.42332">
        <ele>1146.985</ele>
        <time>2015-06-06T05:09:48Z</time>
      </trkpt>
      <trkpt lat="42.32759" lon="2.42344">
        <ele>1147.114</ele>
        <time>2015-06-06T05:09:51Z</time>
      </trkpt>
      <trkpt lat="42.32762" lon="2.4236">
        <ele>1147.282</ele>
        <time>2015-06-06T05:09:55Z</time>
      </trkpt>
      <trkpt lat="42.32765" lon="2.42375">
        <ele>1147.343</ele>
        <time>2015-06-06T05:09:59Z</time>
      </trkpt>
      <trkpt lat="42.32767" lon="2.42391">
        <ele>1147.517</ele>
        <time>2015-06-06T05:10:03Z</time>
      </trkpt>
      <trkpt lat="42.3277" lon="2.42406">
        <ele>1147.707</ele>
        <time>2015-06-06T05:10:07Z</time>
      </trkpt>
      <trkpt lat="42.32772" lon="2.42421">
        <ele>1147.997</ele>
        <time>2015-06-06T05:10:11Z</time>
      </trkpt>
      <trkpt lat="42.32776" lon="2.42437">
        <ele>1148.037</ele>
        <time>2015-06-06T05:10:15Z</time>
      </trkpt>
      <trkpt lat="42.3278" lon="2.42452">
        <ele>1148.241</ele>
        <time>2015-06-06T05:10:19Z</time>
      </trkpt>
      <trkpt lat="42.32785" lon="2.42466">
        <ele>1148.476</ele>
        <time>2015-06-06T05:10:23Z</time>
      </trkpt>
      <trkpt lat="42.32792" lon="2.42478">
        <ele>1148.659</ele>
        <time>2015-06-06T05:10:27Z</time>
      </trkpt>
      <trkpt lat="42.32799" lon="2.4249">
        <ele>1148.661</ele>
        <time>2015-06-06T05:10:31Z</time>
      </trkpt>
      <trkpt lat="42.32807" lon="2.42502">
        <ele>1148.89</ele>
        <time>2015-06-06T05:10:35Z</time>
      </trkpt>
      <trkpt lat="42.32814" lon="2.42514">
        <ele>1149.141</ele>
        <time>2015-06-06T05:10:39Z</time>
      </trkpt>
      <trkpt lat="42.32821" lon="2.42527">
        <ele>1149.381</ele>
        <time>2015-06-06T05:10:43Z</time>
      </trkpt>
      <trkpt lat="42.32826" lon="2.42541">
        <ele>1149.409</ele>
        <time>2015-06-06T05:10:47Z</time>
      </trkpt>
      <trkpt lat="42.3283" lon="2.42554">
        <ele>1149.607</ele>
        <time>2015-06-06T05:10:51Z</time>
      </trkpt>
      <trkpt lat="42.32838" lon="2.42562">
        <ele>1149.853</ele>
        <time>2015-06-06T05:10:55Z</time>
      </trkpt>
      <trkpt lat="42.32845" lon="2.4257">
        <ele>1150.083</ele>
        <time>2015-06-06T05:11:01Z</time>
      </trkpt>
      <trkpt lat="42.32841" lon="2.42563">
        <ele>1150.397</ele>
        <time>2015-06-06T05:12:19Z</time>
      </trkpt>
      <trkpt lat="42.32836" lon="2.42573">
        <ele>1150.172</ele>
        <time>2015-06-06T05:12:23Z</time>
      </trkpt>
      <trkpt lat="42.32835" lon="2.42586">
        <ele>1149.845</ele>
        <time>2015-06-06T05:12:27Z</time>
      </trkpt>
      <trkpt lat="42.32835" lon="2.42602">
        <ele>1149.887</ele>
        <time>2015-06-06T05:12:32Z</time>
      </trkpt>
      <trkpt lat="42.32836" lon="2.42615">
        <ele>1150.046</ele>
        <time>2015-06-06T05:12:37Z</time>
      </trkpt>
      <trkpt lat="42.3284" lon="2.42609">
        <ele>1150.356</ele>
        <time>2015-06-06T05:12:42Z</time>
      </trkpt>
      <trkpt lat="42.3284" lon="2.42592">
        <ele>1150.259</ele>
        <time>2015-06-06T05:12:46Z</time>
      </trkpt>
      <trkpt lat="42.32838" lon="2.42579">
        <ele>1150.114</ele>
        <time>2015-06-06T05:12:49Z</time>
      </trkpt>
      <trkpt lat="42.32838" lon="2.42566">
        <ele>1150.107</ele>
        <time>2015-06-06T05:12:52Z</time>
      </trkpt>
      <trkpt lat="42.32845" lon="2.42569">
        <ele>1150.424</ele>
        <time>2015-06-06T05:12:58Z</time>
      </trkpt>
      <trkpt lat="42.32846" lon="2.42584">
        <ele>1151.054</ele>
        <time>2015-06-06T05:13:05Z</time>
      </trkpt>
      <trkpt lat="42.32846" lon="2.42598">
        <ele>1151.458</ele>
        <time>2015-06-06T05:13:12Z</time>
      </trkpt>
      <trkpt lat="42.32847" lon="2.42612">
        <ele>1151.973</ele>
        <time>2015-06-06T05:13:19Z</time>
      </trkpt>
      <trkpt lat="42.32848" lon="2.42625">
        <ele>1152.256</ele>
        <time>2015-06-06T05:13:26Z</time>
      </trkpt>
      <trkpt lat="42.32849" lon="2.42638">
        <ele>1153.048</ele>
        <time>2015-06-06T05:13:33Z</time>
      </trkpt>
      <trkpt lat="42.32851" lon="2.42651">
        <ele>1154.487</ele>
        <time>2015-06-06T05:13:40Z</time>
      </trkpt>
      <trkpt lat="42.32856" lon="2.42663">
        <ele>1155.684</ele>
        <time>2015-06-06T05:13:48Z</time>
      </trkpt>
      <trkpt lat="42.32864" lon="2.42672">
        <ele>1157.107</ele>
        <time>2015-06-06T05:13:56Z</time>
      </trkpt>
      <trkpt lat="42.32872" lon="2.42678">
        <ele>1158.617</ele>
        <time>2015-06-06T05:14:05Z</time>
      </trkpt>
      <trkpt lat="42.32882" lon="2.42681">
        <ele>1160.307</ele>
        <time>2015-06-06T05:14:14Z</time>
      </trkpt>
      <trkpt lat="42.32891" lon="2.42678">
        <ele>1161.797</ele>
        <time>2015-06-06T05:14:23Z</time>
      </trkpt>
      <trkpt lat="42.32901" lon="2.42676">
        <ele>1162.747</ele>
        <time>2015-06-06T05:14:33Z</time>
      </trkpt>
      <trkpt lat="42.32909" lon="2.42673">
        <ele>1163.881</ele>
        <time>2015-06-06T05:14:42Z</time>
      </trkpt>
      <trkpt lat="42.32918" lon="2.4267">
        <ele>1165.276</ele>
        <time>2015-06-06T05:14:51Z</time>
      </trkpt>
      <trkpt lat="42.32927" lon="2.42665">
        <ele>1166.659</ele>
        <time>2015-06-06T05:15:01Z</time>
      </trkpt>
      <trkpt lat="42.32934" lon="2.42657">
        <ele>1168.211</ele>
        <time>2015-06-06T05:15:11Z</time>
      </trkpt>
      <trkpt lat="42.32941" lon="2.42649">
        <ele>1169.67</ele>
        <time>2015-06-06T05:15:20Z</time>
      </trkpt>
      <trkpt lat="42.32947" lon="2.4264">
        <ele>1170.815</ele>
        <time>2015-06-06T05:15:29Z</time>
      </trkpt>
      <trkpt lat="42.32953" lon="2.4263">
        <ele>1172.165</ele>
        <time>2015-06-06T05:15:38Z</time>
      </trkpt>
      <trkpt lat="42.32958" lon="2.42619">
        <ele>1173.611</ele>
        <time>2015-06-06T05:15:48Z</time>
      </trkpt>
      <trkpt lat="42.32962" lon="2.42607">
        <ele>1175.307</ele>
        <time>2015-06-06T05:15:58Z</time>
      </trkpt>
      <trkpt lat="42.32966" lon="2.42596">
        <ele>1176.66</ele>
        <time>2015-06-06T05:16:08Z</time>
      </trkpt>
      <trkpt lat="42.32973" lon="2.42587">
        <ele>1177.69</ele>
        <time>2015-06-06T05:16:17Z</time>
      </trkpt>
      <trkpt lat="42.3298" lon="2.42578">
        <ele>1178.144</ele>
        <time>2015-06-06T05:16:26Z</time>
      </trkpt>
      <trkpt lat="42.32986" lon="2.42569">
        <ele>1178.919</ele>
        <time>2015-06-06T05:16:35Z</time>
      </trkpt>
      <trkpt lat="42.32995" lon="2.42563">
        <ele>1180.452</ele>
        <time>2015-06-06T05:16:45Z</time>
      </trkpt>
      <trkpt lat="42.33004" lon="2.42558">
        <ele>1182.084</ele>
        <time>2015-06-06T05:16:55Z</time>
      </trkpt>
      <trkpt lat="42.33012" lon="2.42552">
        <ele>1183.883</ele>
        <time>2015-06-06T05:17:05Z</time>
      </trkpt>
      <trkpt lat="42.33019" lon="2.42544">
        <ele>1185.349</ele>
        <time>2015-06-06T05:17:15Z</time>
      </trkpt>
      <trkpt lat="42.33028" lon="2.42538">
        <ele>1186.702</ele>
        <time>2015-06-06T05:17:26Z</time>
      </trkpt>
      <trkpt lat="42.33035" lon="2.42529">
        <ele>1187.922</ele>
        <time>2015-06-06T05:17:36Z</time>
      </trkpt>
      <trkpt lat="42.33042" lon="2.42519">
        <ele>1189.007</ele>
        <time>2015-06-06T05:17:46Z</time>
      </trkpt>
      <trkpt lat="42.33048" lon="2.42509">
        <ele>1190.283</ele>
        <time>2015-06-06T05:17:56Z</time>
      </trkpt>
      <trkpt lat="42.33054" lon="2.42498">
        <ele>1191.243</ele>
        <time>2015-06-06T05:18:06Z</time>
      </trkpt>
      <trkpt lat="42.3306" lon="2.42488">
        <ele>1192.627</ele>
        <time>2015-06-06T05:18:16Z</time>
      </trkpt>
      <trkpt lat="42.33069" lon="2.42481">
        <ele>1194.022</ele>
        <time>2015-06-06T05:18:26Z</time>
      </trkpt>
      <trkpt lat="42.33076" lon="2.42471">
        <ele>1194.875</ele>
        <time>2015-06-06T05:18:35Z</time>
      </trkpt>
      <trkpt lat="42.33086" lon="2.42463">
        <ele>1195.467</ele>
        <time>2015-06-06T05:18:44Z</time>
      </trkpt>
      <trkpt lat="42.33096" lon="2.42455">
        <ele>1196.646</ele>
        <time>2015-06-06T05:18:53Z</time>
      </trkpt>
      <trkpt lat="42.33106" lon="2.42448">
        <ele>1197.293</ele>
        <time>2015-06-06T05:19:01Z</time>
      </trkpt>
      <trkpt lat="42.33113" lon="2.42438">
        <ele>1197.865</ele>
        <time>2015-06-06T05:19:10Z</time>
      </trkpt>
      <trkpt lat="42.3312" lon="2.4243">
        <ele>1198.121</ele>
        <time>2015-06-06T05:19:18Z</time>
      </trkpt>
      <trkpt lat="42.33128" lon="2.42418">
        <ele>1198.507</ele>
        <time>2015-06-06T05:19:26Z</time>
      </trkpt>
      <trkpt lat="42.33137" lon="2.42409">
        <ele>1199.048</ele>
        <time>2015-06-06T05:19:34Z</time>
      </trkpt>
      <trkpt lat="42.33145" lon="2.42401">
        <ele>1199.128</ele>
        <time>2015-06-06T05:19:42Z</time>
      </trkpt>
      <trkpt lat="42.33152" lon="2.42393">
        <ele>1199.852</ele>
        <time>2015-06-06T05:19:49Z</time>
      </trkpt>
      <trkpt lat="42.3316" lon="2.42385">
        <ele>1200.497</ele>
        <time>2015-06-06T05:19:56Z</time>
      </trkpt>
      <trkpt lat="42.33169" lon="2.42378">
        <ele>1201.02</ele>
        <time>2015-06-06T05:20:04Z</time>
      </trkpt>
      <trkpt lat="42.33178" lon="2.42371">
        <ele>1201.622</ele>
        <time>2015-06-06T05:20:12Z</time>
      </trkpt>
      <trkpt lat="42.33187" lon="2.42365">
        <ele>1202.191</ele>
        <time>2015-06-06T05:20:20Z</time>
      </trkpt>
      <trkpt lat="42.33196" lon="2.42359">
        <ele>1202.927</ele>
        <time>2015-06-06T05:20:28Z</time>
      </trkpt>
      <trkpt lat="42.33206" lon="2.42353">
        <ele>1203.468</ele>
        <time>2015-06-06T05:20:36Z</time>
      </trkpt>
      <trkpt lat="42.33209" lon="2.42343">
        <ele>1204.714</ele>
        <time>2015-06-06T05:20:44Z</time>
      </trkpt>
      <trkpt lat="42.332" lon="2.42345">
        <ele>1205.507</ele>
        <time>2015-06-06T05:20:52Z</time>
      </trkpt>
      <trkpt lat="42.3319" lon="2.42351">
        <ele>1205.981</ele>
        <time>2015-06-06T05:20:59Z</time>
      </trkpt>
      <trkpt lat="42.3318" lon="2.42357">
        <ele>1206.271</ele>
        <time>2015-06-06T05:21:06Z</time>
      </trkpt>
      <trkpt lat="42.33171" lon="2.42361">
        <ele>1206.575</ele>
        <time>2015-06-06T05:21:13Z</time>
      </trkpt>
      <trkpt lat="42.33161" lon="2.42365">
        <ele>1206.89</ele>
        <time>2015-06-06T05:21:20Z</time>
      </trkpt>
      <trkpt lat="42.33152" lon="2.42369">
        <ele>1207.193</ele>
        <time>2015-06-06T05:21:27Z</time>
      </trkpt>
      <trkpt lat="42.33143" lon="2.42372">
        <ele>1207.985</ele>
        <time>2015-06-06T05:21:34Z</time>
      </trkpt>
      <trkpt lat="42.33134" lon="2.42374">
        <ele>1208.554</ele>
        <time>2015-06-06T05:21:41Z</time>
      </trkpt>
      <trkpt lat="42.33125" lon="2.42378">
        <ele>1209.084</ele>
        <time>2015-06-06T05:21:48Z</time>
      </trkpt>
      <trkpt lat="42.33116" lon="2.42382">
        <ele>1209.707</ele>
        <time>2015-06-06T05:21:56Z</time>
      </trkpt>
      <trkpt lat="42.33107" lon="2.42387">
        <ele>1210.617</ele>
        <time>2015-06-06T05:22:04Z</time>
      </trkpt>
      <trkpt lat="42.33098" lon="2.42392">
        <ele>1211.007</ele>
        <time>2015-06-06T05:22:11Z</time>
      </trkpt>
      <trkpt lat="42.33088" lon="2.42395">
        <ele>1210.837</ele>
        <time>2015-06-06T05:22:17Z</time>
      </trkpt>
      <trkpt lat="42.33078" lon="2.42391">
        <ele>1210.837</ele>
        <time>2015-06-06T05:22:25Z</time>
      </trkpt>
      <trkpt lat="42.33083" lon="2.42383">
        <ele>1211.991</ele>
        <time>2015-06-06T05:22:33Z</time>
      </trkpt>
      <trkpt lat="42.33092" lon="2.42378">
        <ele>1212.846</ele>
        <time>2015-06-06T05:23:28Z</time>
      </trkpt>
      <trkpt lat="42.331" lon="2.42371">
        <ele>1213.389</ele>
        <time>2015-06-06T05:23:36Z</time>
      </trkpt>
      <trkpt lat="42.33109" lon="2.42363">
        <ele>1213.991</ele>
        <time>2015-06-06T05:23:44Z</time>
      </trkpt>
      <trkpt lat="42.33116" lon="2.42353">
        <ele>1215.02</ele>
        <time>2015-06-06T05:23:52Z</time>
      </trkpt>
      <trkpt lat="42.33123" lon="2.42345">
        <ele>1215.749</ele>
        <time>2015-06-06T05:24:00Z</time>
      </trkpt>
      <trkpt lat="42.33132" lon="2.42338">
        <ele>1216.502</ele>
        <time>2015-06-06T05:24:08Z</time>
      </trkpt>
      <trkpt lat="42.3314" lon="2.42332">
        <ele>1217.422</ele>
        <time>2015-06-06T05:24:15Z</time>
      </trkpt>
      <trkpt lat="42.33147" lon="2.42324">
        <ele>1218.007</ele>
        <time>2015-06-06T05:24:22Z</time>
      </trkpt>
      <trkpt lat="42.33155" lon="2.42315">
        <ele>1218.873</ele>
        <time>2015-06-06T05:24:30Z</time>
      </trkpt>
      <trkpt lat="42.33162" lon="2.42306">
        <ele>1219.633</ele>
        <time>2015-06-06T05:24:38Z</time>
      </trkpt>
      <trkpt lat="42.3317" lon="2.42299">
        <ele>1220.217</ele>
        <time>2015-06-06T05:24:45Z</time>
      </trkpt>
      <trkpt lat="42.33177" lon="2.4229">
        <ele>1220.682</ele>
        <time>2015-06-06T05:24:53Z</time>
      </trkpt>
      <trkpt lat="42.33184" lon="2.42281">
        <ele>1221.515</ele>
        <time>2015-06-06T05:25:00Z</time>
      </trkpt>
      <trkpt lat="42.33191" lon="2.42274">
        <ele>1221.887</ele>
        <time>2015-06-06T05:25:06Z</time>
      </trkpt>
      <trkpt lat="42.33199" lon="2.42265">
        <ele>1222.196</ele>
        <time>2015-06-06T05:25:13Z</time>
      </trkpt>
      <trkpt lat="42.33205" lon="2.42256">
        <ele>1222.687</ele>
        <time>2015-06-06T05:25:20Z</time>
      </trkpt>
      <trkpt lat="42.33211" lon="2.42246">
        <ele>1223.242</ele>
        <time>2015-06-06T05:25:27Z</time>
      </trkpt>
      <trkpt lat="42.33217" lon="2.42236">
        <ele>1223.726</ele>
        <time>2015-06-06T05:25:34Z</time>
      </trkpt>
      <trkpt lat="42.33223" lon="2.42226">
        <ele>1224.607</ele>
        <time>2015-06-06T05:25:41Z</time>
      </trkpt>
      <trkpt lat="42.33231" lon="2.42217">
        <ele>1225.247</ele>
        <time>2015-06-06T05:25:48Z</time>
      </trkpt>
      <trkpt lat="42.33238" lon="2.42207">
        <ele>1225.657</ele>
        <time>2015-06-06T05:25:55Z</time>
      </trkpt>
      <trkpt lat="42.33245" lon="2.42198">
        <ele>1226.111</ele>
        <time>2015-06-06T05:26:02Z</time>
      </trkpt>
      <trkpt lat="42.33252" lon="2.4219">
        <ele>1227.096</ele>
        <time>2015-06-06T05:26:09Z</time>
      </trkpt>
      <trkpt lat="42.33261" lon="2.42182">
        <ele>1227.349</ele>
        <time>2015-06-06T05:26:16Z</time>
      </trkpt>
      <trkpt lat="42.33267" lon="2.42179">
        <ele>1227.961</ele>
        <time>2015-06-06T05:26:30Z</time>
      </trkpt>
      <trkpt lat="42.33277" lon="2.42175">
        <ele>1228.21</ele>
        <time>2015-06-06T05:27:06Z</time>
      </trkpt>
      <trkpt lat="42.33287" lon="2.42177">
        <ele>1228.776</ele>
        <time>2015-06-06T05:27:14Z</time>
      </trkpt>
      <trkpt lat="42.33296" lon="2.4218">
        <ele>1229.19</ele>
        <time>2015-06-06T05:27:21Z</time>
      </trkpt>
      <trkpt lat="42.33306" lon="2.42184">
        <ele>1230.619</ele>
        <time>2015-06-06T05:27:29Z</time>
      </trkpt>
      <trkpt lat="42.33316" lon="2.42187">
        <ele>1231.407</ele>
        <time>2015-06-06T05:27:37Z</time>
      </trkpt>
      <trkpt lat="42.33321" lon="2.42185">
        <ele>1233.826</ele>
        <time>2015-06-06T05:28:52Z</time>
      </trkpt>
      <trkpt lat="42.33327" lon="2.42175">
        <ele>1234.586</ele>
        <time>2015-06-06T05:29:02Z</time>
      </trkpt>
      <trkpt lat="42.33332" lon="2.42163">
        <ele>1235.74</ele>
        <time>2015-06-06T05:29:11Z</time>
      </trkpt>
      <trkpt lat="42.33338" lon="2.42152">
        <ele>1236.985</ele>
        <time>2015-06-06T05:29:21Z</time>
      </trkpt>
      <trkpt lat="42.33343" lon="2.42142">
        <ele>1237.928</ele>
        <time>2015-06-06T05:29:35Z</time>
      </trkpt>
      <trkpt lat="42.33348" lon="2.4213">
        <ele>1238.18</ele>
        <time>2015-06-06T05:29:42Z</time>
      </trkpt>
      <trkpt lat="42.33354" lon="2.42119">
        <ele>1238.399</ele>
        <time>2015-06-06T05:29:48Z</time>
      </trkpt>
      <trkpt lat="42.33358" lon="2.42107">
        <ele>1238.164</ele>
        <time>2015-06-06T05:31:06Z</time>
      </trkpt>
      <trkpt lat="42.33365" lon="2.42094">
        <ele>1237.906</ele>
        <time>2015-06-06T05:31:10Z</time>
      </trkpt>
      <trkpt lat="42.33372" lon="2.42081">
        <ele>1237.416</ele>
        <time>2015-06-06T05:31:13Z</time>
      </trkpt>
      <trkpt lat="42.33379" lon="2.4207">
        <ele>1236.507</ele>
        <time>2015-06-06T05:31:16Z</time>
      </trkpt>
      <trkpt lat="42.33387" lon="2.42058">
        <ele>1235.965</ele>
        <time>2015-06-06T05:31:19Z</time>
      </trkpt>
      <trkpt lat="42.33397" lon="2.42046">
        <ele>1234.935</ele>
        <time>2015-06-06T05:31:22Z</time>
      </trkpt>
      <trkpt lat="42.33405" lon="2.42037">
        <ele>1234.029</ele>
        <time>2015-06-06T05:31:25Z</time>
      </trkpt>
      <trkpt lat="42.33414" lon="2.42029">
        <ele>1232.964</ele>
        <time>2015-06-06T05:31:29Z</time>
      </trkpt>
      <trkpt lat="42.33423" lon="2.42021">
        <ele>1232.277</ele>
        <time>2015-06-06T05:31:33Z</time>
      </trkpt>
      <trkpt lat="42.33432" lon="2.42017">
        <ele>1231.739</ele>
        <time>2015-06-06T05:31:36Z</time>
      </trkpt>
      <trkpt lat="42.33442" lon="2.42013">
        <ele>1230.928</ele>
        <time>2015-06-06T05:31:39Z</time>
      </trkpt>
      <trkpt lat="42.33451" lon="2.42008">
        <ele>1230.494</ele>
        <time>2015-06-06T05:31:42Z</time>
      </trkpt>
      <trkpt lat="42.3346" lon="2.42003">
        <ele>1230.057</ele>
        <time>2015-06-06T05:31:45Z</time>
      </trkpt>
      <trkpt lat="42.3347" lon="2.41996">
        <ele>1229.722</ele>
        <time>2015-06-06T05:31:49Z</time>
      </trkpt>
      <trkpt lat="42.33477" lon="2.4199">
        <ele>1228.907</ele>
        <time>2015-06-06T05:32:13Z</time>
      </trkpt>
      <trkpt lat="42.33486" lon="2.41984">
        <ele>1228.388</ele>
        <time>2015-06-06T05:32:31Z</time>
      </trkpt>
      <trkpt lat="42.33492" lon="2.41978">
        <ele>1228.148</ele>
        <time>2015-06-06T05:32:39Z</time>
      </trkpt>
      <trkpt lat="42.33501" lon="2.41969">
        <ele>1227.782</ele>
        <time>2015-06-06T05:32:43Z</time>
      </trkpt>
      <trkpt lat="42.33512" lon="2.41961">
        <ele>1227.217</ele>
        <time>2015-06-06T05:32:47Z</time>
      </trkpt>
      <trkpt lat="42.33522" lon="2.41953">
        <ele>1226.51</ele>
        <time>2015-06-06T05:32:51Z</time>
      </trkpt>
      <trkpt lat="42.33532" lon="2.41943">
        <ele>1225.542</ele>
        <time>2015-06-06T05:32:55Z</time>
      </trkpt>
      <trkpt lat="42.33542" lon="2.41937">
        <ele>1224.211</ele>
        <time>2015-06-06T05:32:59Z</time>
      </trkpt>
      <trkpt lat="42.3355" lon="2.4193">
        <ele>1222.232</ele>
        <time>2015-06-06T05:33:07Z</time>
      </trkpt>
      <trkpt lat="42.33559" lon="2.41921">
        <ele>1221.292</ele>
        <time>2015-06-06T05:33:32Z</time>
      </trkpt>
      <trkpt lat="42.33566" lon="2.41912">
        <ele>1220.811</ele>
        <time>2015-06-06T05:33:35Z</time>
      </trkpt>
      <trkpt lat="42.33574" lon="2.41902">
        <ele>1220.107</ele>
        <time>2015-06-06T05:33:38Z</time>
      </trkpt>
      <trkpt lat="42.33581" lon="2.41893">
        <ele>1218.432</ele>
        <time>2015-06-06T05:33:43Z</time>
      </trkpt>
      <trkpt lat="42.33589" lon="2.41884">
        <ele>1217.552</ele>
        <time>2015-06-06T05:33:51Z</time>
      </trkpt>
      <trkpt lat="42.33597" lon="2.41877">
        <ele>1217.076</ele>
        <time>2015-06-06T05:33:55Z</time>
      </trkpt>
      <trkpt lat="42.33607" lon="2.4187">
        <ele>1216.351</ele>
        <time>2015-06-06T05:33:59Z</time>
      </trkpt>
      <trkpt lat="42.33616" lon="2.41863">
        <ele>1215.754</ele>
        <time>2015-06-06T05:34:03Z</time>
      </trkpt>
      <trkpt lat="42.33627" lon="2.41857">
        <ele>1215.416</ele>
        <time>2015-06-06T05:34:07Z</time>
      </trkpt>
      <trkpt lat="42.33638" lon="2.41852">
        <ele>1215.135</ele>
        <time>2015-06-06T05:34:11Z</time>
      </trkpt>
      <trkpt lat="42.3365" lon="2.41848">
        <ele>1214.864</ele>
        <time>2015-06-06T05:34:15Z</time>
      </trkpt>
      <trkpt lat="42.33655" lon="2.41838">
        <ele>1213.806</ele>
        <time>2015-06-06T05:34:28Z</time>
      </trkpt>
      <trkpt lat="42.33658" lon="2.41825">
        <ele>1214.816</ele>
        <time>2015-06-06T05:34:38Z</time>
      </trkpt>
      <trkpt lat="42.33664" lon="2.41814">
        <ele>1216.707</ele>
        <time>2015-06-06T05:34:48Z</time>
      </trkpt>
      <trkpt lat="42.33672" lon="2.41806">
        <ele>1218.335</ele>
        <time>2015-06-06T05:34:58Z</time>
      </trkpt>
      <trkpt lat="42.3368" lon="2.41801">
        <ele>1219.775</ele>
        <time>2015-06-06T05:35:09Z</time>
      </trkpt>
      <trkpt lat="42.33691" lon="2.41799">
        <ele>1220.559</ele>
        <time>2015-06-06T05:35:39Z</time>
      </trkpt>
      <trkpt lat="42.33701" lon="2.41799">
        <ele>1221.344</ele>
        <time>2015-06-06T05:35:47Z</time>
      </trkpt>
      <trkpt lat="42.33711" lon="2.418">
        <ele>1222.577</ele>
        <time>2015-06-06T05:35:56Z</time>
      </trkpt>
      <trkpt lat="42.33722" lon="2.41802">
        <ele>1224.089</ele>
        <time>2015-06-06T05:36:07Z</time>
      </trkpt>
      <trkpt lat="42.33732" lon="2.41804">
        <ele>1225.348</ele>
        <time>2015-06-06T05:36:16Z</time>
      </trkpt>
      <trkpt lat="42.33741" lon="2.41806">
        <ele>1226.576</ele>
        <time>2015-06-06T05:36:25Z</time>
      </trkpt>
      <trkpt lat="42.33748" lon="2.41812">
        <ele>1227.79</ele>
        <time>2015-06-06T05:36:35Z</time>
      </trkpt>
      <trkpt lat="42.33757" lon="2.41818">
        <ele>1229.019</ele>
        <time>2015-06-06T05:36:46Z</time>
      </trkpt>
      <trkpt lat="42.33765" lon="2.41827">
        <ele>1230.407</ele>
        <time>2015-06-06T05:36:58Z</time>
      </trkpt>
      <trkpt lat="42.3377" lon="2.41825">
        <ele>1231.996</ele>
        <time>2015-06-06T05:37:10Z</time>
      </trkpt>
      <trkpt lat="42.33764" lon="2.41813">
        <ele>1232.826</ele>
        <time>2015-06-06T05:37:20Z</time>
      </trkpt>
      <trkpt lat="42.33759" lon="2.41802">
        <ele>1233.84</ele>
        <time>2015-06-06T05:37:30Z</time>
      </trkpt>
      <trkpt lat="42.33752" lon="2.41791">
        <ele>1234.695</ele>
        <time>2015-06-06T05:37:44Z</time>
      </trkpt>
      <trkpt lat="42.33746" lon="2.4178">
        <ele>1235.988</ele>
        <time>2015-06-06T05:38:30Z</time>
      </trkpt>
      <trkpt lat="42.33743" lon="2.41766">
        <ele>1236.89</ele>
        <time>2015-06-06T05:38:39Z</time>
      </trkpt>
      <trkpt lat="42.33745" lon="2.41752">
        <ele>1238.269</ele>
        <time>2015-06-06T05:39:01Z</time>
      </trkpt>
      <trkpt lat="42.33752" lon="2.41744">
        <ele>1238.725</ele>
        <time>2015-06-06T05:39:09Z</time>
      </trkpt>
      <trkpt lat="42.3376" lon="2.41737">
        <ele>1240.126</ele>
        <time>2015-06-06T05:39:24Z</time>
      </trkpt>
      <trkpt lat="42.33769" lon="2.4173">
        <ele>1240.408</ele>
        <time>2015-06-06T05:39:31Z</time>
      </trkpt>
      <trkpt lat="42.33776" lon="2.41723">
        <ele>1240.807</ele>
        <time>2015-06-06T05:39:36Z</time>
      </trkpt>
      <trkpt lat="42.33785" lon="2.41716">
        <ele>1241.041</ele>
        <time>2015-06-06T05:39:41Z</time>
      </trkpt>
      <trkpt lat="42.33792" lon="2.41709">
        <ele>1241.511</ele>
        <time>2015-06-06T05:40:24Z</time>
      </trkpt>
      <trkpt lat="42.338" lon="2.41703">
        <ele>1241.745</ele>
        <time>2015-06-06T05:40:32Z</time>
      </trkpt>
      <trkpt lat="42.3381" lon="2.41696">
        <ele>1242.01</ele>
        <time>2015-06-06T05:40:37Z</time>
      </trkpt>
      <trkpt lat="42.33819" lon="2.41689">
        <ele>1242.163</ele>
        <time>2015-06-06T05:40:41Z</time>
      </trkpt>
      <trkpt lat="42.33827" lon="2.41683">
        <ele>1242.115</ele>
        <time>2015-06-06T05:40:45Z</time>
      </trkpt>
      <trkpt lat="42.33834" lon="2.41674">
        <ele>1241.814</ele>
        <time>2015-06-06T05:40:48Z</time>
      </trkpt>
      <trkpt lat="42.33843" lon="2.41664">
        <ele>1241.694</ele>
        <time>2015-06-06T05:40:51Z</time>
      </trkpt>
      <trkpt lat="42.33848" lon="2.41653">
        <ele>1240.957</ele>
        <time>2015-06-06T05:40:55Z</time>
      </trkpt>
      <trkpt lat="42.33858" lon="2.41647">
        <ele>1239.722</ele>
        <time>2015-06-06T05:41:18Z</time>
      </trkpt>
      <trkpt lat="42.33869" lon="2.41641">
        <ele>1239.507</ele>
        <time>2015-06-06T05:41:22Z</time>
      </trkpt>
      <trkpt lat="42.33882" lon="2.41641">
        <ele>1239.078</ele>
        <time>2015-06-06T05:41:25Z</time>
      </trkpt>
      <trkpt lat="42.33891" lon="2.41646">
        <ele>1238.528</ele>
        <time>2015-06-06T05:41:27Z</time>
      </trkpt>
      <trkpt lat="42.33901" lon="2.4165">
        <ele>1238.172</ele>
        <time>2015-06-06T05:41:29Z</time>
      </trkpt>
      <trkpt lat="42.33911" lon="2.41653">
        <ele>1237.677</ele>
        <time>2015-06-06T05:41:31Z</time>
      </trkpt>
      <trkpt lat="42.33921" lon="2.41658">
        <ele>1237.32</ele>
        <time>2015-06-06T05:41:33Z</time>
      </trkpt>
      <trkpt lat="42.33931" lon="2.41663">
        <ele>1236.842</ele>
        <time>2015-06-06T05:41:35Z</time>
      </trkpt>
      <trkpt lat="42.33941" lon="2.41669">
        <ele>1236.421</ele>
        <time>2015-06-06T05:41:37Z</time>
      </trkpt>
      <trkpt lat="42.33949" lon="2.41676">
        <ele>1235.719</ele>
        <time>2015-06-06T05:41:39Z</time>
      </trkpt>
      <trkpt lat="42.33956" lon="2.41687">
        <ele>1235.309</ele>
        <time>2015-06-06T05:41:42Z</time>
      </trkpt>
      <trkpt lat="42.33963" lon="2.41699">
        <ele>1234.919</ele>
        <time>2015-06-06T05:41:46Z</time>
      </trkpt>
      <trkpt lat="42.33972" lon="2.417">
        <ele>1234.007</ele>
        <time>2015-06-06T05:41:52Z</time>
      </trkpt>
      <trkpt lat="42.33977" lon="2.41687">
        <ele>1233.86</ele>
        <time>2015-06-06T05:41:59Z</time>
      </trkpt>
      <trkpt lat="42.33981" lon="2.41672">
        <ele>1234.36</ele>
        <time>2015-06-06T05:42:04Z</time>
      </trkpt>
      <trkpt lat="42.33983" lon="2.41659">
        <ele>1234.364</ele>
        <time>2015-06-06T05:42:08Z</time>
      </trkpt>
      <trkpt lat="42.33985" lon="2.41645">
        <ele>1234.529</ele>
        <time>2015-06-06T05:42:12Z</time>
      </trkpt>
      <trkpt lat="42.33986" lon="2.41629">
        <ele>1234.692</ele>
        <time>2015-06-06T05:42:16Z</time>
      </trkpt>
      <trkpt lat="42.33986" lon="2.41616">
        <ele>1234.624</ele>
        <time>2015-06-06T05:42:20Z</time>
      </trkpt>
      <trkpt lat="42.33989" lon="2.41601">
        <ele>1234.693</ele>
        <time>2015-06-06T05:42:25Z</time>
      </trkpt>
      <trkpt lat="42.33993" lon="2.41589">
        <ele>1235.012</ele>
        <time>2015-06-06T05:42:29Z</time>
      </trkpt>
      <trkpt lat="42.33996" lon="2.41578">
        <ele>1235.132</ele>
        <time>2015-06-06T05:42:33Z</time>
      </trkpt>
      <trkpt lat="42.34004" lon="2.41568">
        <ele>1235.605</ele>
        <time>2015-06-06T05:42:39Z</time>
      </trkpt>
      <trkpt lat="42.34012" lon="2.41571">
        <ele>1236.907</ele>
        <time>2015-06-06T05:46:42Z</time>
      </trkpt>
      <trkpt lat="42.34008" lon="2.41584">
        <ele>1237.58</ele>
        <time>2015-06-06T05:46:55Z</time>
      </trkpt>
      <trkpt lat="42.34006" lon="2.41597">
        <ele>1237.82</ele>
        <time>2015-06-06T05:47:04Z</time>
      </trkpt>
      <trkpt lat="42.34004" lon="2.41611">
        <ele>1239.044</ele>
        <time>2015-06-06T05:47:14Z</time>
      </trkpt>
      <trkpt lat="42.34004" lon="2.41624">
        <ele>1240.799</ele>
        <time>2015-06-06T05:47:24Z</time>
      </trkpt>
      <trkpt lat="42.34008" lon="2.41638">
        <ele>1242.192</ele>
        <time>2015-06-06T05:47:34Z</time>
      </trkpt>
      <trkpt lat="42.34011" lon="2.41651">
        <ele>1243.314</ele>
        <time>2015-06-06T05:47:43Z</time>
      </trkpt>
      <trkpt lat="42.34014" lon="2.41664">
        <ele>1244.113</ele>
        <time>2015-06-06T05:47:52Z</time>
      </trkpt>
      <trkpt lat="42.34017" lon="2.41677">
        <ele>1244.613</ele>
        <time>2015-06-06T05:48:01Z</time>
      </trkpt>
      <trkpt lat="42.3402" lon="2.41691">
        <ele>1245.343</ele>
        <time>2015-06-06T05:48:11Z</time>
      </trkpt>
      <trkpt lat="42.34022" lon="2.41703">
        <ele>1246.307</ele>
        <time>2015-06-06T05:48:20Z</time>
      </trkpt>
      <trkpt lat="42.34026" lon="2.41715">
        <ele>1247.407</ele>
        <time>2015-06-06T05:48:30Z</time>
      </trkpt>
      <trkpt lat="42.34028" lon="2.41728">
        <ele>1248.56</ele>
        <time>2015-06-06T05:48:41Z</time>
      </trkpt>
      <trkpt lat="42.34033" lon="2.41739">
        <ele>1249.71</ele>
        <time>2015-06-06T05:48:52Z</time>
      </trkpt>
      <trkpt lat="42.3404" lon="2.41749">
        <ele>1250.994</ele>
        <time>2015-06-06T05:49:04Z</time>
      </trkpt>
      <trkpt lat="42.34047" lon="2.41759">
        <ele>1252.229</ele>
        <time>2015-06-06T05:49:14Z</time>
      </trkpt>
      <trkpt lat="42.34053" lon="2.41769">
        <ele>1253.352</ele>
        <time>2015-06-06T05:49:25Z</time>
      </trkpt>
      <trkpt lat="42.34057" lon="2.41781">
        <ele>1255.674</ele>
        <time>2015-06-06T05:49:38Z</time>
      </trkpt>
      <trkpt lat="42.34061" lon="2.41793">
        <ele>1257.373</ele>
        <time>2015-06-06T05:49:50Z</time>
      </trkpt>
      <trkpt lat="42.34066" lon="2.41804">
        <ele>1259.137</ele>
        <time>2015-06-06T05:50:03Z</time>
      </trkpt>
      <trkpt lat="42.34071" lon="2.41815">
        <ele>1260.849</ele>
        <time>2015-06-06T05:50:16Z</time>
      </trkpt>
      <trkpt lat="42.34076" lon="2.41828">
        <ele>1262.013</ele>
        <time>2015-06-06T05:50:27Z</time>
      </trkpt>
      <trkpt lat="42.34079" lon="2.4184">
        <ele>1263.107</ele>
        <time>2015-06-06T05:50:38Z</time>
      </trkpt>
      <trkpt lat="42.3408" lon="2.41854">
        <ele>1264.492</ele>
        <time>2015-06-06T05:50:50Z</time>
      </trkpt>
      <trkpt lat="42.34081" lon="2.41867">
        <ele>1265.552</ele>
        <time>2015-06-06T05:51:00Z</time>
      </trkpt>
      <trkpt lat="42.34084" lon="2.41878">
        <ele>1267.086</ele>
        <time>2015-06-06T05:51:12Z</time>
      </trkpt>
      <trkpt lat="42.3409" lon="2.41894">
        <ele>1268.721</ele>
        <time>2015-06-06T05:51:25Z</time>
      </trkpt>
      <trkpt lat="42.34094" lon="2.41906">
        <ele>1270.434</ele>
        <time>2015-06-06T05:51:39Z</time>
      </trkpt>
      <trkpt lat="42.341" lon="2.4192">
        <ele>1272.756</ele>
        <time>2015-06-06T05:51:55Z</time>
      </trkpt>
      <trkpt lat="42.34105" lon="2.41933">
        <ele>1274.695</ele>
        <time>2015-06-06T05:52:10Z</time>
      </trkpt>
      <trkpt lat="42.34096" lon="2.4194">
        <ele>1275.367</ele>
        <time>2015-06-06T05:53:08Z</time>
      </trkpt>
      <trkpt lat="42.34085" lon="2.41934">
        <ele>1275.581</ele>
        <time>2015-06-06T05:53:18Z</time>
      </trkpt>
      <trkpt lat="42.34076" lon="2.41931">
        <ele>1276.119</ele>
        <time>2015-06-06T05:53:24Z</time>
      </trkpt>
      <trkpt lat="42.34065" lon="2.41928">
        <ele>1276.207</ele>
        <time>2015-06-06T05:53:31Z</time>
      </trkpt>
      <trkpt lat="42.34055" lon="2.41927">
        <ele>1276.655</ele>
        <time>2015-06-06T05:53:38Z</time>
      </trkpt>
      <trkpt lat="42.34046" lon="2.41926">
        <ele>1277.395</ele>
        <time>2015-06-06T05:53:45Z</time>
      </trkpt>
      <trkpt lat="42.34035" lon="2.41926">
        <ele>1278.069</ele>
        <time>2015-06-06T05:53:53Z</time>
      </trkpt>
      <trkpt lat="42.34025" lon="2.41924">
        <ele>1278.824</ele>
        <time>2015-06-06T05:54:01Z</time>
      </trkpt>
      <trkpt lat="42.34015" lon="2.41921">
        <ele>1279.597</ele>
        <time>2015-06-06T05:54:09Z</time>
      </trkpt>
      <trkpt lat="42.34006" lon="2.41918">
        <ele>1280.589</ele>
        <time>2015-06-06T05:54:17Z</time>
      </trkpt>
      <trkpt lat="42.33996" lon="2.41914">
        <ele>1281.548</ele>
        <time>2015-06-06T05:54:25Z</time>
      </trkpt>
      <trkpt lat="42.33986" lon="2.41911">
        <ele>1282.514</ele>
        <time>2015-06-06T05:54:34Z</time>
      </trkpt>
      <trkpt lat="42.33976" lon="2.41909">
        <ele>1283.354</ele>
        <time>2015-06-06T05:54:42Z</time>
      </trkpt>
      <trkpt lat="42.33965" lon="2.41906">
        <ele>1283.809</ele>
        <time>2015-06-06T05:54:50Z</time>
      </trkpt>
      <trkpt lat="42.33955" lon="2.41905">
        <ele>1284.507</ele>
        <time>2015-06-06T05:54:58Z</time>
      </trkpt>
      <trkpt lat="42.33944" lon="2.41907">
        <ele>1285.73</ele>
        <time>2015-06-06T05:55:06Z</time>
      </trkpt>
      <trkpt lat="42.33934" lon="2.41911">
        <ele>1286.29</ele>
        <time>2015-06-06T05:55:15Z</time>
      </trkpt>
      <trkpt lat="42.33926" lon="2.41919">
        <ele>1286.844</ele>
        <time>2015-06-06T05:55:24Z</time>
      </trkpt>
      <trkpt lat="42.33921" lon="2.41932">
        <ele>1288.339</ele>
        <time>2015-06-06T05:55:56Z</time>
      </trkpt>
      <trkpt lat="42.33923" lon="2.41945">
        <ele>1288.752</ele>
        <time>2015-06-06T05:56:08Z</time>
      </trkpt>
      <trkpt lat="42.33923" lon="2.4196">
        <ele>1289.474</ele>
        <time>2015-06-06T05:56:18Z</time>
      </trkpt>
      <trkpt lat="42.33923" lon="2.41975">
        <ele>1290.473</ele>
        <time>2015-06-06T05:56:27Z</time>
      </trkpt>
      <trkpt lat="42.33924" lon="2.41989">
        <ele>1291.367</ele>
        <time>2015-06-06T05:56:36Z</time>
      </trkpt>
      <trkpt lat="42.33925" lon="2.42003">
        <ele>1292.781</ele>
        <time>2015-06-06T05:56:45Z</time>
      </trkpt>
      <trkpt lat="42.33928" lon="2.42016">
        <ele>1293.619</ele>
        <time>2015-06-06T05:56:55Z</time>
      </trkpt>
      <trkpt lat="42.33932" lon="2.42028">
        <ele>1294.407</ele>
        <time>2015-06-06T05:57:04Z</time>
      </trkpt>
      <trkpt lat="42.33935" lon="2.4204">
        <ele>1295.365</ele>
        <time>2015-06-06T05:57:13Z</time>
      </trkpt>
      <trkpt lat="42.33939" lon="2.42053">
        <ele>1296.785</ele>
        <time>2015-06-06T05:57:23Z</time>
      </trkpt>
      <trkpt lat="42.33942" lon="2.42066">
        <ele>1297.769</ele>
        <time>2015-06-06T05:57:32Z</time>
      </trkpt>
      <trkpt lat="42.33948" lon="2.42069">
        <ele>1298.834</ele>
        <time>2015-06-06T05:57:44Z</time>
      </trkpt>
      <trkpt lat="42.33945" lon="2.42057">
        <ele>1300.157</ele>
        <time>2015-06-06T05:57:56Z</time>
      </trkpt>
      <trkpt lat="42.33944" lon="2.42045">
        <ele>1300.399</ele>
        <time>2015-06-06T05:59:27Z</time>
      </trkpt>
      <trkpt lat="42.33946" lon="2.42032">
        <ele>1301.958</ele>
        <time>2015-06-06T05:59:39Z</time>
      </trkpt>
      <trkpt lat="42.33948" lon="2.42019">
        <ele>1303.427</ele>
        <time>2015-06-06T05:59:58Z</time>
      </trkpt>
      <trkpt lat="42.33952" lon="2.42008">
        <ele>1305.168</ele>
        <time>2015-06-06T06:00:09Z</time>
      </trkpt>
      <trkpt lat="42.33958" lon="2.41996">
        <ele>1306.614</ele>
        <time>2015-06-06T06:00:21Z</time>
      </trkpt>
      <trkpt lat="42.33965" lon="2.41987">
        <ele>1308.207</ele>
        <time>2015-06-06T06:00:32Z</time>
      </trkpt>
      <trkpt lat="42.33975" lon="2.41985">
        <ele>1309.681</ele>
        <time>2015-06-06T06:00:43Z</time>
      </trkpt>
      <trkpt lat="42.33981" lon="2.41996">
        <ele>1310.721</ele>
        <time>2015-06-06T06:00:53Z</time>
      </trkpt>
      <trkpt lat="42.33986" lon="2.42007">
        <ele>1311.545</ele>
        <time>2015-06-06T06:01:03Z</time>
      </trkpt>
      <trkpt lat="42.3399" lon="2.4202">
        <ele>1312.16</ele>
        <time>2015-06-06T06:01:13Z</time>
      </trkpt>
      <trkpt lat="42.33993" lon="2.42031">
        <ele>1313.443</ele>
        <time>2015-06-06T06:01:22Z</time>
      </trkpt>
      <trkpt lat="42.33999" lon="2.42041">
        <ele>1314.045</ele>
        <time>2015-06-06T06:01:31Z</time>
      </trkpt>
      <trkpt lat="42.34006" lon="2.42049">
        <ele>1315.164</ele>
        <time>2015-06-06T06:01:40Z</time>
      </trkpt>
      <trkpt lat="42.34014" lon="2.42055">
        <ele>1316.295</ele>
        <time>2015-06-06T06:01:49Z</time>
      </trkpt>
      <trkpt lat="42.34023" lon="2.42062">
        <ele>1317.049</ele>
        <time>2015-06-06T06:01:58Z</time>
      </trkpt>
      <trkpt lat="42.34031" lon="2.42069">
        <ele>1318.023</ele>
        <time>2015-06-06T06:02:06Z</time>
      </trkpt>
      <trkpt lat="42.3404" lon="2.42072">
        <ele>1318.307</ele>
        <time>2015-06-06T06:06:50Z</time>
      </trkpt>
      <trkpt lat="42.3405" lon="2.42077">
        <ele>1318.598</ele>
        <time>2015-06-06T06:06:56Z</time>
      </trkpt>
      <trkpt lat="42.3406" lon="2.42083">
        <ele>1318.368</ele>
        <time>2015-06-06T06:07:00Z</time>
      </trkpt>
      <trkpt lat="42.34071" lon="2.4209">
        <ele>1317.852</ele>
        <time>2015-06-06T06:07:03Z</time>
      </trkpt>
      <trkpt lat="42.3408" lon="2.42101">
        <ele>1317.177</ele>
        <time>2015-06-06T06:07:06Z</time>
      </trkpt>
      <trkpt lat="42.34086" lon="2.42113">
        <ele>1316.42</ele>
        <time>2015-06-06T06:07:09Z</time>
      </trkpt>
      <trkpt lat="42.34093" lon="2.42127">
        <ele>1316.242</ele>
        <time>2015-06-06T06:07:12Z</time>
      </trkpt>
      <trkpt lat="42.34096" lon="2.4214">
        <ele>1315.791</ele>
        <time>2015-06-06T06:07:16Z</time>
      </trkpt>
      <trkpt lat="42.34094" lon="2.42153">
        <ele>1316.278</ele>
        <time>2015-06-06T06:07:30Z</time>
      </trkpt>
      <trkpt lat="42.3409" lon="2.42164">
        <ele>1317.033</ele>
        <time>2015-06-06T06:07:39Z</time>
      </trkpt>
      <trkpt lat="42.34086" lon="2.42176">
        <ele>1318.226</ele>
        <time>2015-06-06T06:07:48Z</time>
      </trkpt>
      <trkpt lat="42.3408" lon="2.42187">
        <ele>1319.407</ele>
        <time>2015-06-06T06:07:57Z</time>
      </trkpt>
      <trkpt lat="42.34075" lon="2.42199">
        <ele>1320.336</ele>
        <time>2015-06-06T06:08:06Z</time>
      </trkpt>
      <trkpt lat="42.34072" lon="2.42212">
        <ele>1321.666</ele>
        <time>2015-06-06T06:08:15Z</time>
      </trkpt>
      <trkpt lat="42.34069" lon="2.42224">
        <ele>1323.34</ele>
        <time>2015-06-06T06:09:01Z</time>
      </trkpt>
      <trkpt lat="42.34066" lon="2.42236">
        <ele>1323.845</ele>
        <time>2015-06-06T06:09:11Z</time>
      </trkpt>
      <trkpt lat="42.34063" lon="2.42249">
        <ele>1325.368</ele>
        <time>2015-06-06T06:09:21Z</time>
      </trkpt>
      <trkpt lat="42.34062" lon="2.42262">
        <ele>1326.61</ele>
        <time>2015-06-06T06:09:31Z</time>
      </trkpt>
      <trkpt lat="42.34062" lon="2.42274">
        <ele>1327.869</ele>
        <time>2015-06-06T06:09:40Z</time>
      </trkpt>
      <trkpt lat="42.34066" lon="2.42286">
        <ele>1329.291</ele>
        <time>2015-06-06T06:09:50Z</time>
      </trkpt>
      <trkpt lat="42.34072" lon="2.42297">
        <ele>1330.881</ele>
        <time>2015-06-06T06:10:02Z</time>
      </trkpt>
      <trkpt lat="42.3408" lon="2.42305">
        <ele>1332.519</ele>
        <time>2015-06-06T06:10:14Z</time>
      </trkpt>
      <trkpt lat="42.34087" lon="2.42314">
        <ele>1333.707</ele>
        <time>2015-06-06T06:10:24Z</time>
      </trkpt>
      <trkpt lat="42.34096" lon="2.42319">
        <ele>1335.418</ele>
        <time>2015-06-06T06:10:37Z</time>
      </trkpt>
      <trkpt lat="42.34097" lon="2.42307">
        <ele>1337.168</ele>
        <time>2015-06-06T06:10:51Z</time>
      </trkpt>
      <trkpt lat="42.34095" lon="2.42294">
        <ele>1338.862</ele>
        <time>2015-06-06T06:11:02Z</time>
      </trkpt>
      <trkpt lat="42.34099" lon="2.42282">
        <ele>1340.017</ele>
        <time>2015-06-06T06:11:12Z</time>
      </trkpt>
      <trkpt lat="42.34108" lon="2.42276">
        <ele>1341.25</ele>
        <time>2015-06-06T06:11:22Z</time>
      </trkpt>
      <trkpt lat="42.34117" lon="2.42274">
        <ele>1342.492</ele>
        <time>2015-06-06T06:11:32Z</time>
      </trkpt>
      <trkpt lat="42.34128" lon="2.42273">
        <ele>1343.971</ele>
        <time>2015-06-06T06:11:44Z</time>
      </trkpt>
      <trkpt lat="42.34138" lon="2.42272">
        <ele>1345.145</ele>
        <time>2015-06-06T06:11:56Z</time>
      </trkpt>
      <trkpt lat="42.34148" lon="2.42273">
        <ele>1346.447</ele>
        <time>2015-06-06T06:12:07Z</time>
      </trkpt>
      <trkpt lat="42.34159" lon="2.42274">
        <ele>1347.811</ele>
        <time>2015-06-06T06:12:18Z</time>
      </trkpt>
      <trkpt lat="42.3417" lon="2.42279">
        <ele>1349.107</ele>
        <time>2015-06-06T06:12:29Z</time>
      </trkpt>
      <trkpt lat="42.34173" lon="2.42289">
        <ele>1350.623</ele>
        <time>2015-06-06T06:12:40Z</time>
      </trkpt>
      <trkpt lat="42.3417" lon="2.42302">
        <ele>1352.373</ele>
        <time>2015-06-06T06:12:53Z</time>
      </trkpt>
      <trkpt lat="42.34175" lon="2.42312">
        <ele>1353.667</ele>
        <time>2015-06-06T06:13:03Z</time>
      </trkpt>
      <trkpt lat="42.34184" lon="2.42315">
        <ele>1355.412</ele>
        <time>2015-06-06T06:13:42Z</time>
      </trkpt>
      <trkpt lat="42.34193" lon="2.42319">
        <ele>1356.975</ele>
        <time>2015-06-06T06:13:52Z</time>
      </trkpt>
      <trkpt lat="42.34202" lon="2.42325">
        <ele>1358.777</ele>
        <time>2015-06-06T06:14:03Z</time>
      </trkpt>
      <trkpt lat="42.34208" lon="2.42334">
        <ele>1360.246</ele>
        <time>2015-06-06T06:14:12Z</time>
      </trkpt>
      <trkpt lat="42.34214" lon="2.42344">
        <ele>1361.166</ele>
        <time>2015-06-06T06:14:21Z</time>
      </trkpt>
      <trkpt lat="42.34221" lon="2.42352">
        <ele>1362.129</ele>
        <time>2015-06-06T06:14:31Z</time>
      </trkpt>
      <trkpt lat="42.3423" lon="2.42353">
        <ele>1363.321</ele>
        <time>2015-06-06T06:14:41Z</time>
      </trkpt>
      <trkpt lat="42.34238" lon="2.42358">
        <ele>1364.007</ele>
        <time>2015-06-06T06:15:39Z</time>
      </trkpt>
      <trkpt lat="42.34246" lon="2.42365">
        <ele>1364.395</ele>
        <time>2015-06-06T06:15:46Z</time>
      </trkpt>
      <trkpt lat="42.34254" lon="2.42372">
        <ele>1364.975</ele>
        <time>2015-06-06T06:15:53Z</time>
      </trkpt>
      <trkpt lat="42.34263" lon="2.42381">
        <ele>1366.049</ele>
        <time>2015-06-06T06:16:01Z</time>
      </trkpt>
      <trkpt lat="42.34268" lon="2.42391">
        <ele>1367.484</ele>
        <time>2015-06-06T06:16:09Z</time>
      </trkpt>
      <trkpt lat="42.34272" lon="2.42402">
        <ele>1368.467</ele>
        <time>2015-06-06T06:16:17Z</time>
      </trkpt>
      <trkpt lat="42.34272" lon="2.42415">
        <ele>1369.449</ele>
        <time>2015-06-06T06:16:25Z</time>
      </trkpt>
      <trkpt lat="42.34269" lon="2.42428">
        <ele>1370.818</ele>
        <time>2015-06-06T06:16:33Z</time>
      </trkpt>
      <trkpt lat="42.34266" lon="2.4244">
        <ele>1371.538</ele>
        <time>2015-06-06T06:16:41Z</time>
      </trkpt>
      <trkpt lat="42.34262" lon="2.42452">
        <ele>1372.57</ele>
        <time>2015-06-06T06:16:50Z</time>
      </trkpt>
      <trkpt lat="42.34257" lon="2.42463">
        <ele>1373.217</ele>
        <time>2015-06-06T06:16:58Z</time>
      </trkpt>
      <trkpt lat="42.34253" lon="2.42475">
        <ele>1373.907</ele>
        <time>2015-06-06T06:17:07Z</time>
      </trkpt>
      <trkpt lat="42.34252" lon="2.42488">
        <ele>1374.962</ele>
        <time>2015-06-06T06:17:16Z</time>
      </trkpt>
      <trkpt lat="42.34252" lon="2.42502">
        <ele>1376.292</ele>
        <time>2015-06-06T06:17:25Z</time>
      </trkpt>
      <trkpt lat="42.34253" lon="2.42514">
        <ele>1377.236</ele>
        <time>2015-06-06T06:17:34Z</time>
      </trkpt>
      <trkpt lat="42.34256" lon="2.42526">
        <ele>1378.181</ele>
        <time>2015-06-06T06:17:43Z</time>
      </trkpt>
      <trkpt lat="42.34258" lon="2.42538">
        <ele>1379.384</ele>
        <time>2015-06-06T06:17:53Z</time>
      </trkpt>
      <trkpt lat="42.34264" lon="2.42549">
        <ele>1380.746</ele>
        <time>2015-06-06T06:18:04Z</time>
      </trkpt>
      <trkpt lat="42.34269" lon="2.42559">
        <ele>1382.195</ele>
        <time>2015-06-06T06:18:36Z</time>
      </trkpt>
      <trkpt lat="42.34275" lon="2.4257">
        <ele>1383.975</ele>
        <time>2015-06-06T06:18:47Z</time>
      </trkpt>
      <trkpt lat="42.34281" lon="2.4258">
        <ele>1385.328</ele>
        <time>2015-06-06T06:18:57Z</time>
      </trkpt>
      <trkpt lat="42.34287" lon="2.4259">
        <ele>1386.62</ele>
        <time>2015-06-06T06:19:07Z</time>
      </trkpt>
      <trkpt lat="42.34293" lon="2.426">
        <ele>1387.607</ele>
        <time>2015-06-06T06:19:17Z</time>
      </trkpt>
      <trkpt lat="42.34298" lon="2.42611">
        <ele>1388.996</ele>
        <time>2015-06-06T06:19:27Z</time>
      </trkpt>
      <trkpt lat="42.34303" lon="2.42621">
        <ele>1389.976</ele>
        <time>2015-06-06T06:19:37Z</time>
      </trkpt>
      <trkpt lat="42.34308" lon="2.42632">
        <ele>1391.45</ele>
        <time>2015-06-06T06:19:48Z</time>
      </trkpt>
      <trkpt lat="42.34313" lon="2.42643">
        <ele>1392.955</ele>
        <time>2015-06-06T06:19:58Z</time>
      </trkpt>
      <trkpt lat="42.34317" lon="2.42655">
        <ele>1393.738</ele>
        <time>2015-06-06T06:20:08Z</time>
      </trkpt>
      <trkpt lat="42.34322" lon="2.42665">
        <ele>1395.12</ele>
        <time>2015-06-06T06:20:17Z</time>
      </trkpt>
      <trkpt lat="42.34329" lon="2.42675">
        <ele>1396.229</ele>
        <time>2015-06-06T06:20:26Z</time>
      </trkpt>
      <trkpt lat="42.34334" lon="2.42685">
        <ele>1396.442</ele>
        <time>2015-06-06T06:20:34Z</time>
      </trkpt>
      <trkpt lat="42.3434" lon="2.42696">
        <ele>1396.422</ele>
        <time>2015-06-06T06:20:42Z</time>
      </trkpt>
      <trkpt lat="42.34345" lon="2.42706">
        <ele>1397.214</ele>
        <time>2015-06-06T06:20:50Z</time>
      </trkpt>
      <trkpt lat="42.34349" lon="2.42717">
        <ele>1396.907</ele>
        <time>2015-06-06T06:21:01Z</time>
      </trkpt>
      <trkpt lat="42.34354" lon="2.42728">
        <ele>1396.673</ele>
        <time>2015-06-06T06:22:11Z</time>
      </trkpt>
      <trkpt lat="42.34361" lon="2.42743">
        <ele>1396.363</ele>
        <time>2015-06-06T06:22:15Z</time>
      </trkpt>
      <trkpt lat="42.34367" lon="2.42757">
        <ele>1395.847</ele>
        <time>2015-06-06T06:22:18Z</time>
      </trkpt>
      <trkpt lat="42.34374" lon="2.42773">
        <ele>1395.282</ele>
        <time>2015-06-06T06:22:21Z</time>
      </trkpt>
      <trkpt lat="42.34381" lon="2.42788">
        <ele>1394.585</ele>
        <time>2015-06-06T06:22:24Z</time>
      </trkpt>
      <trkpt lat="42.34388" lon="2.42803">
        <ele>1393.547</ele>
        <time>2015-06-06T06:22:27Z</time>
      </trkpt>
      <trkpt lat="42.34394" lon="2.42817">
        <ele>1393.146</ele>
        <time>2015-06-06T06:22:30Z</time>
      </trkpt>
      <trkpt lat="42.34401" lon="2.42831">
        <ele>1392.769</ele>
        <time>2015-06-06T06:22:33Z</time>
      </trkpt>
      <trkpt lat="42.34408" lon="2.42846">
        <ele>1392.204</ele>
        <time>2015-06-06T06:22:36Z</time>
      </trkpt>
      <trkpt lat="42.34413" lon="2.42856">
        <ele>1391.824</ele>
        <time>2015-06-06T06:22:38Z</time>
      </trkpt>
      <trkpt lat="42.34421" lon="2.42871">
        <ele>1391.207</ele>
        <time>2015-06-06T06:22:41Z</time>
      </trkpt>
      <trkpt lat="42.34429" lon="2.42884">
        <ele>1390.775</ele>
        <time>2015-06-06T06:22:44Z</time>
      </trkpt>
      <trkpt lat="42.34438" lon="2.42896">
        <ele>1390.315</ele>
        <time>2015-06-06T06:22:47Z</time>
      </trkpt>
      <trkpt lat="42.34447" lon="2.42909">
        <ele>1389.799</ele>
        <time>2015-06-06T06:22:50Z</time>
      </trkpt>
      <trkpt lat="42.34456" lon="2.42921">
        <ele>1388.654</ele>
        <time>2015-06-06T06:22:53Z</time>
      </trkpt>
      <trkpt lat="42.34463" lon="2.42929">
        <ele>1387.487</ele>
        <time>2015-06-06T06:22:58Z</time>
      </trkpt>
      <trkpt lat="42.3447" lon="2.42935">
        <ele>1386.429</ele>
        <time>2015-06-06T06:23:27Z</time>
      </trkpt>
      <trkpt lat="42.34478" lon="2.42943">
        <ele>1386.288</ele>
        <time>2015-06-06T06:23:30Z</time>
      </trkpt>
      <trkpt lat="42.34487" lon="2.42952">
        <ele>1386.091</ele>
        <time>2015-06-06T06:23:33Z</time>
      </trkpt>
      <trkpt lat="42.34497" lon="2.42962">
        <ele>1385.681</ele>
        <time>2015-06-06T06:23:36Z</time>
      </trkpt>
      <trkpt lat="42.34507" lon="2.42973">
        <ele>1385.019</ele>
        <time>2015-06-06T06:23:39Z</time>
      </trkpt>
      <trkpt lat="42.34517" lon="2.42982">
        <ele>1384.607</ele>
        <time>2015-06-06T06:23:42Z</time>
      </trkpt>
      <trkpt lat="42.34525" lon="2.42989">
        <ele>1384.298</ele>
        <time>2015-06-06T06:23:45Z</time>
      </trkpt>
      <trkpt lat="42.34534" lon="2.42993">
        <ele>1383.978</ele>
        <time>2015-06-06T06:23:49Z</time>
      </trkpt>
      <trkpt lat="42.34543" lon="2.42999">
        <ele>1383.652</ele>
        <time>2015-06-06T06:23:54Z</time>
      </trkpt>
      <trkpt lat="42.34553" lon="2.43004">
        <ele>1383.627</ele>
        <time>2015-06-06T06:23:59Z</time>
      </trkpt>
      <trkpt lat="42.34561" lon="2.43013">
        <ele>1383.96</ele>
        <time>2015-06-06T06:24:04Z</time>
      </trkpt>
      <trkpt lat="42.34569" lon="2.4302">
        <ele>1384.152</ele>
        <time>2015-06-06T06:24:08Z</time>
      </trkpt>
      <trkpt lat="42.34577" lon="2.43028">
        <ele>1384.341</ele>
        <time>2015-06-06T06:24:12Z</time>
      </trkpt>
      <trkpt lat="42.34588" lon="2.43031">
        <ele>1384.673</ele>
        <time>2015-06-06T06:24:17Z</time>
      </trkpt>
      <trkpt lat="42.34598" lon="2.43029">
        <ele>1385.185</ele>
        <time>2015-06-06T06:24:24Z</time>
      </trkpt>
      <trkpt lat="42.34606" lon="2.43025">
        <ele>1386.013</ele>
        <time>2015-06-06T06:24:31Z</time>
      </trkpt>
      <trkpt lat="42.34616" lon="2.4302">
        <ele>1387.107</ele>
        <time>2015-06-06T06:24:42Z</time>
      </trkpt>
      <trkpt lat="42.34624" lon="2.43016">
        <ele>1387.696</ele>
        <time>2015-06-06T06:25:20Z</time>
      </trkpt>
      <trkpt lat="42.34634" lon="2.43012">
        <ele>1388.746</ele>
        <time>2015-06-06T06:25:30Z</time>
      </trkpt>
      <trkpt lat="42.34642" lon="2.43011">
        <ele>1390.38</ele>
        <time>2015-06-06T06:25:40Z</time>
      </trkpt>
      <trkpt lat="42.34652" lon="2.43009">
        <ele>1392.055</ele>
        <time>2015-06-06T06:25:49Z</time>
      </trkpt>
      <trkpt lat="42.34661" lon="2.43008">
        <ele>1393.518</ele>
        <time>2015-06-06T06:25:59Z</time>
      </trkpt>
      <trkpt lat="42.34671" lon="2.43006">
        <ele>1395.31</ele>
        <time>2015-06-06T06:26:09Z</time>
      </trkpt>
      <trkpt lat="42.3468" lon="2.43005">
        <ele>1395.819</ele>
        <time>2015-06-06T06:26:17Z</time>
      </trkpt>
      <trkpt lat="42.3469" lon="2.43004">
        <ele>1396.337</ele>
        <time>2015-06-06T06:26:26Z</time>
      </trkpt>
      <trkpt lat="42.34699" lon="2.43003">
        <ele>1396.449</ele>
        <time>2015-06-06T06:26:33Z</time>
      </trkpt>
      <trkpt lat="42.34709" lon="2.43002">
        <ele>1396.213</ele>
        <time>2015-06-06T06:26:40Z</time>
      </trkpt>
      <trkpt lat="42.34718" lon="2.43001">
        <ele>1396.007</ele>
        <time>2015-06-06T06:26:47Z</time>
      </trkpt>
      <trkpt lat="42.34728" lon="2.43002">
        <ele>1396.212</ele>
        <time>2015-06-06T06:26:55Z</time>
      </trkpt>
      <trkpt lat="42.34737" lon="2.43003">
        <ele>1396.812</ele>
        <time>2015-06-06T06:27:03Z</time>
      </trkpt>
      <trkpt lat="42.34746" lon="2.43003">
        <ele>1397.556</ele>
        <time>2015-06-06T06:27:13Z</time>
      </trkpt>
      <trkpt lat="42.34756" lon="2.43002">
        <ele>1399.671</ele>
        <time>2015-06-06T06:27:24Z</time>
      </trkpt>
      <trkpt lat="42.34766" lon="2.43001">
        <ele>1400.934</ele>
        <time>2015-06-06T06:27:34Z</time>
      </trkpt>
      <trkpt lat="42.34775" lon="2.43">
        <ele>1401.726</ele>
        <time>2015-06-06T06:27:43Z</time>
      </trkpt>
      <trkpt lat="42.34785" lon="2.42999">
        <ele>1402.015</ele>
        <time>2015-06-06T06:27:51Z</time>
      </trkpt>
      <trkpt lat="42.34793" lon="2.43001">
        <ele>1403.237</ele>
        <time>2015-06-06T06:28:39Z</time>
      </trkpt>
      <trkpt lat="42.34803" lon="2.43001">
        <ele>1403.649</ele>
        <time>2015-06-06T06:28:47Z</time>
      </trkpt>
      <trkpt lat="42.34813" lon="2.43003">
        <ele>1404.513</ele>
        <time>2015-06-06T06:28:57Z</time>
      </trkpt>
      <trkpt lat="42.34824" lon="2.43001">
        <ele>1406.807</ele>
        <time>2015-06-06T06:29:10Z</time>
      </trkpt>
      <trkpt lat="42.34834" lon="2.42998">
        <ele>1408.922</ele>
        <time>2015-06-06T06:29:24Z</time>
      </trkpt>
      <trkpt lat="42.34844" lon="2.42998">
        <ele>1411.212</ele>
        <time>2015-06-06T06:29:37Z</time>
      </trkpt>
      <trkpt lat="42.34853" lon="2.42998">
        <ele>1412.886</ele>
        <time>2015-06-06T06:29:50Z</time>
      </trkpt>
      <trkpt lat="42.34861" lon="2.43">
        <ele>1415.761</ele>
        <time>2015-06-06T06:30:34Z</time>
      </trkpt>
      <trkpt lat="42.34871" lon="2.43002">
        <ele>1417.384</ele>
        <time>2015-06-06T06:30:48Z</time>
      </trkpt>
      <trkpt lat="42.34881" lon="2.43002">
        <ele>1419.756</ele>
        <time>2015-06-06T06:31:01Z</time>
      </trkpt>
      <trkpt lat="42.3489" lon="2.43003">
        <ele>1421.125</ele>
        <time>2015-06-06T06:31:12Z</time>
      </trkpt>
      <trkpt lat="42.34899" lon="2.43008">
        <ele>1422.718</ele>
        <time>2015-06-06T06:32:03Z</time>
      </trkpt>
      <trkpt lat="42.34908" lon="2.43015">
        <ele>1422.798</ele>
        <time>2015-06-06T06:32:11Z</time>
      </trkpt>
      <trkpt lat="42.34917" lon="2.43023">
        <ele>1422.817</ele>
        <time>2015-06-06T06:32:18Z</time>
      </trkpt>
      <trkpt lat="42.34925" lon="2.43028">
        <ele>1422.907</ele>
        <time>2015-06-06T06:32:23Z</time>
      </trkpt>
      <trkpt lat="42.34934" lon="2.43033">
        <ele>1422.95</ele>
        <time>2015-06-06T06:32:30Z</time>
      </trkpt>
      <trkpt lat="42.34945" lon="2.43036">
        <ele>1423.13</ele>
        <time>2015-06-06T06:32:37Z</time>
      </trkpt>
      <trkpt lat="42.34954" lon="2.43039">
        <ele>1423.744</ele>
        <time>2015-06-06T06:32:44Z</time>
      </trkpt>
      <trkpt lat="42.34963" lon="2.43041">
        <ele>1424.779</ele>
        <time>2015-06-06T06:32:51Z</time>
      </trkpt>
      <trkpt lat="42.34973" lon="2.43043">
        <ele>1426.052</ele>
        <time>2015-06-06T06:32:59Z</time>
      </trkpt>
      <trkpt lat="42.34983" lon="2.43046">
        <ele>1427.424</ele>
        <time>2015-06-06T06:33:07Z</time>
      </trkpt>
      <trkpt lat="42.34992" lon="2.43048">
        <ele>1428.273</ele>
        <time>2015-06-06T06:33:14Z</time>
      </trkpt>
      <trkpt lat="42.35001" lon="2.43049">
        <ele>1428.616</ele>
        <time>2015-06-06T06:33:21Z</time>
      </trkpt>
      <trkpt lat="42.35011" lon="2.4305">
        <ele>1428.776</ele>
        <time>2015-06-06T06:33:28Z</time>
      </trkpt>
      <trkpt lat="42.35021" lon="2.4305">
        <ele>1428.713</ele>
        <time>2015-06-06T06:33:35Z</time>
      </trkpt>
      <trkpt lat="42.35031" lon="2.43052">
        <ele>1429.207</ele>
        <time>2015-06-06T06:33:42Z</time>
      </trkpt>
      <trkpt lat="42.35039" lon="2.43058">
        <ele>1429.79</ele>
        <time>2015-06-06T06:33:49Z</time>
      </trkpt>
      <trkpt lat="42.35047" lon="2.43066">
        <ele>1430.11</ele>
        <time>2015-06-06T06:33:56Z</time>
      </trkpt>
      <trkpt lat="42.35056" lon="2.43073">
        <ele>1431.034</ele>
        <time>2015-06-06T06:34:04Z</time>
      </trkpt>
      <trkpt lat="42.35064" lon="2.43081">
        <ele>1432.129</ele>
        <time>2015-06-06T06:34:11Z</time>
      </trkpt>
      <trkpt lat="42.35072" lon="2.43087">
        <ele>1433.192</ele>
        <time>2015-06-06T06:34:18Z</time>
      </trkpt>
      <trkpt lat="42.35081" lon="2.43095">
        <ele>1433.524</ele>
        <time>2015-06-06T06:34:24Z</time>
      </trkpt>
      <trkpt lat="42.35089" lon="2.43102">
        <ele>1433.543</ele>
        <time>2015-06-06T06:34:57Z</time>
      </trkpt>
      <trkpt lat="42.35097" lon="2.4311">
        <ele>1433.578</ele>
        <time>2015-06-06T06:35:04Z</time>
      </trkpt>
      <trkpt lat="42.35105" lon="2.43117">
        <ele>1433.533</ele>
        <time>2015-06-06T06:35:10Z</time>
      </trkpt>
      <trkpt lat="42.35113" lon="2.43125">
        <ele>1433.726</ele>
        <time>2015-06-06T06:35:17Z</time>
      </trkpt>
      <trkpt lat="42.35122" lon="2.43132">
        <ele>1434.207</ele>
        <time>2015-06-06T06:35:24Z</time>
      </trkpt>
      <trkpt lat="42.3513" lon="2.43139">
        <ele>1435.166</ele>
        <time>2015-06-06T06:35:31Z</time>
      </trkpt>
      <trkpt lat="42.35137" lon="2.43147">
        <ele>1435.996</ele>
        <time>2015-06-06T06:35:38Z</time>
      </trkpt>
      <trkpt lat="42.35146" lon="2.43154">
        <ele>1437.51</ele>
        <time>2015-06-06T06:35:47Z</time>
      </trkpt>
      <trkpt lat="42.35154" lon="2.43161">
        <ele>1439.115</ele>
        <time>2015-06-06T06:35:56Z</time>
      </trkpt>
      <trkpt lat="42.35162" lon="2.43169">
        <ele>1440.788</ele>
        <time>2015-06-06T06:36:05Z</time>
      </trkpt>
      <trkpt lat="42.3517" lon="2.43174">
        <ele>1441.99</ele>
        <time>2015-06-06T06:36:14Z</time>
      </trkpt>
      <trkpt lat="42.35178" lon="2.43183">
        <ele>1442.799</ele>
        <time>2015-06-06T06:36:23Z</time>
      </trkpt>
      <trkpt lat="42.35186" lon="2.43192">
        <ele>1442.951</ele>
        <time>2015-06-06T06:36:31Z</time>
      </trkpt>
      <trkpt lat="42.35192" lon="2.432">
        <ele>1443.001</ele>
        <time>2015-06-06T06:36:38Z</time>
      </trkpt>
      <trkpt lat="42.35201" lon="2.43209">
        <ele>1443.011</ele>
        <time>2015-06-06T06:36:45Z</time>
      </trkpt>
      <trkpt lat="42.35209" lon="2.43217">
        <ele>1442.907</ele>
        <time>2015-06-06T06:36:51Z</time>
      </trkpt>
      <trkpt lat="42.35216" lon="2.43226">
        <ele>1442.624</ele>
        <time>2015-06-06T06:36:57Z</time>
      </trkpt>
      <trkpt lat="42.35223" lon="2.43236">
        <ele>1442.834</ele>
        <time>2015-06-06T06:37:04Z</time>
      </trkpt>
      <trkpt lat="42.35231" lon="2.43244">
        <ele>1443.388</ele>
        <time>2015-06-06T06:37:11Z</time>
      </trkpt>
      <trkpt lat="42.35238" lon="2.43253">
        <ele>1444.293</ele>
        <time>2015-06-06T06:37:18Z</time>
      </trkpt>
      <trkpt lat="42.35245" lon="2.43261">
        <ele>1445.166</ele>
        <time>2015-06-06T06:37:25Z</time>
      </trkpt>
      <trkpt lat="42.35249" lon="2.43273">
        <ele>1446.418</ele>
        <time>2015-06-06T06:37:33Z</time>
      </trkpt>
      <trkpt lat="42.35253" lon="2.43285">
        <ele>1447.287</ele>
        <time>2015-06-06T06:37:42Z</time>
      </trkpt>
      <trkpt lat="42.35257" lon="2.43297">
        <ele>1448.339</ele>
        <time>2015-06-06T06:37:51Z</time>
      </trkpt>
      <trkpt lat="42.35263" lon="2.43308">
        <ele>1449.301</ele>
        <time>2015-06-06T06:38:00Z</time>
      </trkpt>
      <trkpt lat="42.3527" lon="2.43318">
        <ele>1450.321</ele>
        <time>2015-06-06T06:38:08Z</time>
      </trkpt>
      <trkpt lat="42.35277" lon="2.43329">
        <ele>1451.007</ele>
        <time>2015-06-06T06:38:16Z</time>
      </trkpt>
      <trkpt lat="42.35284" lon="2.43338">
        <ele>1451.542</ele>
        <time>2015-06-06T06:38:24Z</time>
      </trkpt>
      <trkpt lat="42.35291" lon="2.43348">
        <ele>1452.192</ele>
        <time>2015-06-06T06:38:32Z</time>
      </trkpt>
      <trkpt lat="42.35297" lon="2.43358">
        <ele>1452.536</ele>
        <time>2015-06-06T06:38:39Z</time>
      </trkpt>
      <trkpt lat="42.35303" lon="2.43367">
        <ele>1452.991</ele>
        <time>2015-06-06T06:38:46Z</time>
      </trkpt>
      <trkpt lat="42.35311" lon="2.43377">
        <ele>1453.154</ele>
        <time>2015-06-06T06:38:53Z</time>
      </trkpt>
      <trkpt lat="42.35317" lon="2.43386">
        <ele>1453.476</ele>
        <time>2015-06-06T06:38:59Z</time>
      </trkpt>
      <trkpt lat="42.35322" lon="2.43398">
        <ele>1453.685</ele>
        <time>2015-06-06T06:39:06Z</time>
      </trkpt>
      <trkpt lat="42.35327" lon="2.43411">
        <ele>1453.874</ele>
        <time>2015-06-06T06:39:13Z</time>
      </trkpt>
      <trkpt lat="42.35332" lon="2.43422">
        <ele>1454.156</ele>
        <time>2015-06-06T06:39:20Z</time>
      </trkpt>
      <trkpt lat="42.35338" lon="2.43433">
        <ele>1454.821</ele>
        <time>2015-06-06T06:39:27Z</time>
      </trkpt>
      <trkpt lat="42.35345" lon="2.43443">
        <ele>1456.007</ele>
        <time>2015-06-06T06:39:35Z</time>
      </trkpt>
      <trkpt lat="42.35352" lon="2.43451">
        <ele>1457.636</ele>
        <time>2015-06-06T06:40:47Z</time>
      </trkpt>
      <trkpt lat="42.35363" lon="2.43456">
        <ele>1457.436</ele>
        <time>2015-06-06T06:40:52Z</time>
      </trkpt>
      <trkpt lat="42.35373" lon="2.43459">
        <ele>1457.23</ele>
        <time>2015-06-06T06:40:57Z</time>
      </trkpt>
      <trkpt lat="42.35383" lon="2.43461">
        <ele>1457.455</ele>
        <time>2015-06-06T06:41:02Z</time>
      </trkpt>
      <trkpt lat="42.35394" lon="2.4346">
        <ele>1458.178</ele>
        <time>2015-06-06T06:41:08Z</time>
      </trkpt>
      <trkpt lat="42.35404" lon="2.43459">
        <ele>1458.97</ele>
        <time>2015-06-06T06:41:14Z</time>
      </trkpt>
      <trkpt lat="42.35413" lon="2.43459">
        <ele>1459.519</ele>
        <time>2015-06-06T06:41:19Z</time>
      </trkpt>
      <trkpt lat="42.35423" lon="2.43461">
        <ele>1459.928</ele>
        <time>2015-06-06T06:41:24Z</time>
      </trkpt>
      <trkpt lat="42.35433" lon="2.43464">
        <ele>1460.589</ele>
        <time>2015-06-06T06:41:31Z</time>
      </trkpt>
      <trkpt lat="42.35442" lon="2.43467">
        <ele>1461.517</ele>
        <time>2015-06-06T06:41:38Z</time>
      </trkpt>
      <trkpt lat="42.3545" lon="2.4347">
        <ele>1462.607</ele>
        <time>2015-06-06T06:42:05Z</time>
      </trkpt>
      <trkpt lat="42.3546" lon="2.43476">
        <ele>1462.531</ele>
        <time>2015-06-06T06:42:10Z</time>
      </trkpt>
      <trkpt lat="42.3547" lon="2.43483">
        <ele>1462.371</ele>
        <time>2015-06-06T06:42:13Z</time>
      </trkpt>
      <trkpt lat="42.35478" lon="2.43492">
        <ele>1461.795</ele>
        <time>2015-06-06T06:42:15Z</time>
      </trkpt>
      <trkpt lat="42.35485" lon="2.43503">
        <ele>1461.17</ele>
        <time>2015-06-06T06:42:17Z</time>
      </trkpt>
      <trkpt lat="42.35491" lon="2.43513">
        <ele>1460.393</ele>
        <time>2015-06-06T06:42:19Z</time>
      </trkpt>
      <trkpt lat="42.35497" lon="2.43523">
        <ele>1459.575</ele>
        <time>2015-06-06T06:42:21Z</time>
      </trkpt>
      <trkpt lat="42.35504" lon="2.43535">
        <ele>1458.854</ele>
        <time>2015-06-06T06:42:24Z</time>
      </trkpt>
      <trkpt lat="42.35512" lon="2.43549">
        <ele>1458.457</ele>
        <time>2015-06-06T06:42:27Z</time>
      </trkpt>
      <trkpt lat="42.35518" lon="2.43562">
        <ele>1458</ele>
        <time>2015-06-06T06:42:29Z</time>
      </trkpt>
      <trkpt lat="42.35525" lon="2.43574">
        <ele>1457.32</ele>
        <time>2015-06-06T06:42:31Z</time>
      </trkpt>
      <trkpt lat="42.35531" lon="2.43587">
        <ele>1456.507</ele>
        <time>2015-06-06T06:42:33Z</time>
      </trkpt>
      <trkpt lat="42.35539" lon="2.43599">
        <ele>1455.794</ele>
        <time>2015-06-06T06:42:35Z</time>
      </trkpt>
      <trkpt lat="42.35549" lon="2.43606">
        <ele>1454.674</ele>
        <time>2015-06-06T06:42:38Z</time>
      </trkpt>
      <trkpt lat="42.35556" lon="2.43614">
        <ele>1454.258</ele>
        <time>2015-06-06T06:42:42Z</time>
      </trkpt>
      <trkpt lat="42.35564" lon="2.43621">
        <ele>1454.593</ele>
        <time>2015-06-06T06:42:45Z</time>
      </trkpt>
      <trkpt lat="42.35572" lon="2.43629">
        <ele>1454.556</ele>
        <time>2015-06-06T06:42:48Z</time>
      </trkpt>
      <trkpt lat="42.35579" lon="2.43638">
        <ele>1454.228</ele>
        <time>2015-06-06T06:42:51Z</time>
      </trkpt>
      <trkpt lat="42.35589" lon="2.43648">
        <ele>1453.847</ele>
        <time>2015-06-06T06:42:55Z</time>
      </trkpt>
      <trkpt lat="42.35596" lon="2.43659">
        <ele>1453.685</ele>
        <time>2015-06-06T06:42:59Z</time>
      </trkpt>
      <trkpt lat="42.35601" lon="2.43674">
        <ele>1453.389</ele>
        <time>2015-06-06T06:43:03Z</time>
      </trkpt>
      <trkpt lat="42.35605" lon="2.43686">
        <ele>1452.817</ele>
        <time>2015-06-06T06:43:06Z</time>
      </trkpt>
      <trkpt lat="42.35607" lon="2.437">
        <ele>1452.207</ele>
        <time>2015-06-06T06:43:09Z</time>
      </trkpt>
      <trkpt lat="42.35612" lon="2.43716">
        <ele>1450.857</ele>
        <time>2015-06-06T06:43:12Z</time>
      </trkpt>
      <trkpt lat="42.35617" lon="2.43733">
        <ele>1448.727</ele>
        <time>2015-06-06T06:43:15Z</time>
      </trkpt>
      <trkpt lat="42.35621" lon="2.43748">
        <ele>1446.831</ele>
        <time>2015-06-06T06:43:18Z</time>
      </trkpt>
      <trkpt lat="42.35622" lon="2.43765">
        <ele>1444.886</ele>
        <time>2015-06-06T06:43:21Z</time>
      </trkpt>
      <trkpt lat="42.35622" lon="2.43782">
        <ele>1443.029</ele>
        <time>2015-06-06T06:43:24Z</time>
      </trkpt>
      <trkpt lat="42.35619" lon="2.4379">
        <ele>1438.131</ele>
        <time>2015-06-06T06:43:48Z</time>
      </trkpt>
      <trkpt lat="42.35611" lon="2.43801">
        <ele>1437.88</ele>
        <time>2015-06-06T06:43:52Z</time>
      </trkpt>
      <trkpt lat="42.35602" lon="2.43811">
        <ele>1437.281</ele>
        <time>2015-06-06T06:43:55Z</time>
      </trkpt>
      <trkpt lat="42.35594" lon="2.43822">
        <ele>1436.761</ele>
        <time>2015-06-06T06:43:58Z</time>
      </trkpt>
      <trkpt lat="42.35586" lon="2.43835">
        <ele>1436.117</ele>
        <time>2015-06-06T06:44:01Z</time>
      </trkpt>
      <trkpt lat="42.35578" lon="2.43849">
        <ele>1435.607</ele>
        <time>2015-06-06T06:44:04Z</time>
      </trkpt>
      <trkpt lat="42.35573" lon="2.43858">
        <ele>1435.047</ele>
        <time>2015-06-06T06:44:06Z</time>
      </trkpt>
      <trkpt lat="42.35571" lon="2.43876">
        <ele>1433.777</ele>
        <time>2015-06-06T06:44:09Z</time>
      </trkpt>
      <trkpt lat="42.35573" lon="2.43888">
        <ele>1432.951</ele>
        <time>2015-06-06T06:44:11Z</time>
      </trkpt>
      <trkpt lat="42.35578" lon="2.43905">
        <ele>1432.036</ele>
        <time>2015-06-06T06:44:14Z</time>
      </trkpt>
      <trkpt lat="42.35583" lon="2.43919">
        <ele>1431.189</ele>
        <time>2015-06-06T06:44:17Z</time>
      </trkpt>
      <trkpt lat="42.35588" lon="2.43935">
        <ele>1430.111</ele>
        <time>2015-06-06T06:44:20Z</time>
      </trkpt>
      <trkpt lat="42.35591" lon="2.43947">
        <ele>1429.59</ele>
        <time>2015-06-06T06:44:22Z</time>
      </trkpt>
      <trkpt lat="42.35595" lon="2.4396">
        <ele>1428.821</ele>
        <time>2015-06-06T06:44:24Z</time>
      </trkpt>
      <trkpt lat="42.35599" lon="2.43973">
        <ele>1427.941</ele>
        <time>2015-06-06T06:44:26Z</time>
      </trkpt>
      <trkpt lat="42.35604" lon="2.43985">
        <ele>1426.805</ele>
        <time>2015-06-06T06:44:28Z</time>
      </trkpt>
      <trkpt lat="42.3561" lon="2.43995">
        <ele>1425.807</ele>
        <time>2015-06-06T06:44:30Z</time>
      </trkpt>
      <trkpt lat="42.35617" lon="2.44005">
        <ele>1424.661</ele>
        <time>2015-06-06T06:44:34Z</time>
      </trkpt>
      <trkpt lat="42.35628" lon="2.44014">
        <ele>1423.721</ele>
        <time>2015-06-06T06:44:38Z</time>
      </trkpt>
      <trkpt lat="42.35636" lon="2.44021">
        <ele>1423.255</ele>
        <time>2015-06-06T06:44:40Z</time>
      </trkpt>
      <trkpt lat="42.35643" lon="2.44032">
        <ele>1422.71</ele>
        <time>2015-06-06T06:44:42Z</time>
      </trkpt>
      <trkpt lat="42.35649" lon="2.44045">
        <ele>1421.433</ele>
        <time>2015-06-06T06:44:44Z</time>
      </trkpt>
      <trkpt lat="42.35653" lon="2.44057">
        <ele>1420.335</ele>
        <time>2015-06-06T06:44:46Z</time>
      </trkpt>
      <trkpt lat="42.35657" lon="2.44071">
        <ele>1419.394</ele>
        <time>2015-06-06T06:44:48Z</time>
      </trkpt>
      <trkpt lat="42.35663" lon="2.44084">
        <ele>1418.194</ele>
        <time>2015-06-06T06:44:50Z</time>
      </trkpt>
      <trkpt lat="42.35669" lon="2.44095">
        <ele>1416.857</ele>
        <time>2015-06-06T06:44:52Z</time>
      </trkpt>
      <trkpt lat="42.35673" lon="2.44107">
        <ele>1415.422</ele>
        <time>2015-06-06T06:44:54Z</time>
      </trkpt>
      <trkpt lat="42.35678" lon="2.44119">
        <ele>1414.207</ele>
        <time>2015-06-06T06:44:56Z</time>
      </trkpt>
      <trkpt lat="42.35683" lon="2.44133">
        <ele>1412.988</ele>
        <time>2015-06-06T06:44:58Z</time>
      </trkpt>
      <trkpt lat="42.35688" lon="2.4415">
        <ele>1411.488</ele>
        <time>2015-06-06T06:45:00Z</time>
      </trkpt>
      <trkpt lat="42.35694" lon="2.44165">
        <ele>1409.922</ele>
        <time>2015-06-06T06:45:02Z</time>
      </trkpt>
      <trkpt lat="42.35702" lon="2.44179">
        <ele>1408.117</ele>
        <time>2015-06-06T06:45:04Z</time>
      </trkpt>
      <trkpt lat="42.35709" lon="2.44192">
        <ele>1406.75</ele>
        <time>2015-06-06T06:45:06Z</time>
      </trkpt>
      <trkpt lat="42.35716" lon="2.44204">
        <ele>1405.312</ele>
        <time>2015-06-06T06:45:08Z</time>
      </trkpt>
      <trkpt lat="42.35722" lon="2.44215">
        <ele>1404.011</ele>
        <time>2015-06-06T06:45:10Z</time>
      </trkpt>
      <trkpt lat="42.3573" lon="2.44228">
        <ele>1402.517</ele>
        <time>2015-06-06T06:45:13Z</time>
      </trkpt>
      <trkpt lat="42.35738" lon="2.44239">
        <ele>1401.187</ele>
        <time>2015-06-06T06:45:16Z</time>
      </trkpt>
      <trkpt lat="42.35747" lon="2.44248">
        <ele>1399.515</ele>
        <time>2015-06-06T06:45:18Z</time>
      </trkpt>
      <trkpt lat="42.35754" lon="2.44258">
        <ele>1398.407</ele>
        <time>2015-06-06T06:45:20Z</time>
      </trkpt>
      <trkpt lat="42.35763" lon="2.44271">
        <ele>1397.17</ele>
        <time>2015-06-06T06:45:23Z</time>
      </trkpt>
      <trkpt lat="42.3577" lon="2.44287">
        <ele>1395.96</ele>
        <time>2015-06-06T06:45:26Z</time>
      </trkpt>
      <trkpt lat="42.35777" lon="2.44301">
        <ele>1395.434</ele>
        <time>2015-06-06T06:45:28Z</time>
      </trkpt>
      <trkpt lat="42.35784" lon="2.44316">
        <ele>1394.539</ele>
        <time>2015-06-06T06:45:30Z</time>
      </trkpt>
      <trkpt lat="42.35791" lon="2.44332">
        <ele>1393.312</ele>
        <time>2015-06-06T06:45:32Z</time>
      </trkpt>
      <trkpt lat="42.35798" lon="2.44348">
        <ele>1391.984</ele>
        <time>2015-06-06T06:45:34Z</time>
      </trkpt>
      <trkpt lat="42.35807" lon="2.44362">
        <ele>1390.323</ele>
        <time>2015-06-06T06:45:36Z</time>
      </trkpt>
      <trkpt lat="42.35817" lon="2.44376">
        <ele>1388.746</ele>
        <time>2015-06-06T06:45:38Z</time>
      </trkpt>
      <trkpt lat="42.35827" lon="2.44389">
        <ele>1387.488</ele>
        <time>2015-06-06T06:45:40Z</time>
      </trkpt>
      <trkpt lat="42.35835" lon="2.44403">
        <ele>1386.316</ele>
        <time>2015-06-06T06:45:42Z</time>
      </trkpt>
      <trkpt lat="42.35842" lon="2.44414">
        <ele>1385.007</ele>
        <time>2015-06-06T06:45:44Z</time>
      </trkpt>
      <trkpt lat="42.35849" lon="2.44424">
        <ele>1384.623</ele>
        <time>2015-06-06T06:45:47Z</time>
      </trkpt>
      <trkpt lat="42.35855" lon="2.44429">
        <ele>1385.513</ele>
        <time>2015-06-06T06:46:18Z</time>
      </trkpt>
      <trkpt lat="42.35863" lon="2.44438">
        <ele>1385.727</ele>
        <time>2015-06-06T06:46:26Z</time>
      </trkpt>
      <trkpt lat="42.35872" lon="2.44443">
        <ele>1386.452</ele>
        <time>2015-06-06T06:46:34Z</time>
      </trkpt>
      <trkpt lat="42.35882" lon="2.44449">
        <ele>1387.395</ele>
        <time>2015-06-06T06:46:43Z</time>
      </trkpt>
      <trkpt lat="42.3589" lon="2.44454">
        <ele>1388.657</ele>
        <time>2015-06-06T06:46:52Z</time>
      </trkpt>
      <trkpt lat="42.35899" lon="2.4446">
        <ele>1389.916</ele>
        <time>2015-06-06T06:47:02Z</time>
      </trkpt>
      <trkpt lat="42.35907" lon="2.44466">
        <ele>1391.789</ele>
        <time>2015-06-06T06:47:13Z</time>
      </trkpt>
      <trkpt lat="42.35916" lon="2.44473">
        <ele>1393.706</ele>
        <time>2015-06-06T06:47:26Z</time>
      </trkpt>
      <trkpt lat="42.35923" lon="2.4448">
        <ele>1395.926</ele>
        <time>2015-06-06T06:47:40Z</time>
      </trkpt>
      <trkpt lat="42.35931" lon="2.44486">
        <ele>1398.307</ele>
        <time>2015-06-06T06:47:57Z</time>
      </trkpt>
      <trkpt lat="42.3594" lon="2.44495">
        <ele>1400.377</ele>
        <time>2015-06-06T06:48:15Z</time>
      </trkpt>
      <trkpt lat="42.35949" lon="2.44502">
        <ele>1403.097</ele>
        <time>2015-06-06T06:48:48Z</time>
      </trkpt>
      <trkpt lat="42.35957" lon="2.4451">
        <ele>1404.881</ele>
        <time>2015-06-06T06:49:02Z</time>
      </trkpt>
      <trkpt lat="42.35965" lon="2.4452">
        <ele>1406.816</ele>
        <time>2015-06-06T06:49:18Z</time>
      </trkpt>
      <trkpt lat="42.35973" lon="2.44529">
        <ele>1409.649</ele>
        <time>2015-06-06T06:49:33Z</time>
      </trkpt>
      <trkpt lat="42.35978" lon="2.4454">
        <ele>1411.851</ele>
        <time>2015-06-06T06:49:47Z</time>
      </trkpt>
      <trkpt lat="42.35984" lon="2.44551">
        <ele>1413.84</ele>
        <time>2015-06-06T06:50:01Z</time>
      </trkpt>
      <trkpt lat="42.35991" lon="2.44558">
        <ele>1415.299</ele>
        <time>2015-06-06T06:50:55Z</time>
      </trkpt>
      <trkpt lat="42.35996" lon="2.44571">
        <ele>1416.207</ele>
        <time>2015-06-06T06:51:06Z</time>
      </trkpt>
      <trkpt lat="42.36" lon="2.44583">
        <ele>1418.227</ele>
        <time>2015-06-06T06:51:17Z</time>
      </trkpt>
      <trkpt lat="42.36004" lon="2.44595">
        <ele>1420.207</ele>
        <time>2015-06-06T06:51:29Z</time>
      </trkpt>
      <trkpt lat="42.36009" lon="2.44606">
        <ele>1421.418</ele>
        <time>2015-06-06T06:51:40Z</time>
      </trkpt>
      <trkpt lat="42.36015" lon="2.44617">
        <ele>1423.138</ele>
        <time>2015-06-06T06:51:52Z</time>
      </trkpt>
      <trkpt lat="42.36019" lon="2.44628">
        <ele>1424.542</ele>
        <time>2015-06-06T06:52:04Z</time>
      </trkpt>
      <trkpt lat="42.36027" lon="2.44635">
        <ele>1426.547</ele>
        <time>2015-06-06T06:52:53Z</time>
      </trkpt>
      <trkpt lat="42.3603" lon="2.44646">
        <ele>1427.86</ele>
        <time>2015-06-06T06:53:05Z</time>
      </trkpt>
      <trkpt lat="42.36036" lon="2.44655">
        <ele>1429.972</ele>
        <time>2015-06-06T06:53:18Z</time>
      </trkpt>
      <trkpt lat="42.36043" lon="2.44662">
        <ele>1432.261</ele>
        <time>2015-06-06T06:53:33Z</time>
      </trkpt>
      <trkpt lat="42.36051" lon="2.44671">
        <ele>1434.798</ele>
        <time>2015-06-06T06:53:47Z</time>
      </trkpt>
      <trkpt lat="42.36058" lon="2.4468">
        <ele>1436.315</ele>
        <time>2015-06-06T06:54:00Z</time>
      </trkpt>
      <trkpt lat="42.36065" lon="2.44689">
        <ele>1438.026</ele>
        <time>2015-06-06T06:54:13Z</time>
      </trkpt>
      <trkpt lat="42.36073" lon="2.44694">
        <ele>1439.507</ele>
        <time>2015-06-06T06:55:20Z</time>
      </trkpt>
      <trkpt lat="42.36082" lon="2.447">
        <ele>1440.988</ele>
        <time>2015-06-06T06:55:31Z</time>
      </trkpt>
      <trkpt lat="42.36091" lon="2.44706">
        <ele>1442.558</ele>
        <time>2015-06-06T06:55:45Z</time>
      </trkpt>
      <trkpt lat="42.36099" lon="2.44712">
        <ele>1444.572</ele>
        <time>2015-06-06T06:55:58Z</time>
      </trkpt>
      <trkpt lat="42.36109" lon="2.44717">
        <ele>1446.197</ele>
        <time>2015-06-06T06:56:12Z</time>
      </trkpt>
      <trkpt lat="42.36119" lon="2.44723">
        <ele>1448.03</ele>
        <time>2015-06-06T06:56:25Z</time>
      </trkpt>
      <trkpt lat="42.36127" lon="2.44723">
        <ele>1449.392</ele>
        <time>2015-06-06T06:57:34Z</time>
      </trkpt>
      <trkpt lat="42.36136" lon="2.44727">
        <ele>1450.381</ele>
        <time>2015-06-06T06:57:46Z</time>
      </trkpt>
      <trkpt lat="42.36144" lon="2.44737">
        <ele>1452.374</ele>
        <time>2015-06-06T06:57:58Z</time>
      </trkpt>
      <trkpt lat="42.36152" lon="2.44746">
        <ele>1453.856</ele>
        <time>2015-06-06T06:58:10Z</time>
      </trkpt>
      <trkpt lat="42.36161" lon="2.44752">
        <ele>1456.121</ele>
        <time>2015-06-06T06:58:21Z</time>
      </trkpt>
      <trkpt lat="42.3617" lon="2.44758">
        <ele>1457.807</ele>
        <time>2015-06-06T06:58:34Z</time>
      </trkpt>
      <trkpt lat="42.36179" lon="2.44761">
        <ele>1459.946</ele>
        <time>2015-06-06T06:58:47Z</time>
      </trkpt>
      <trkpt lat="42.36189" lon="2.44765">
        <ele>1461.176</ele>
        <time>2015-06-06T06:59:00Z</time>
      </trkpt>
      <trkpt lat="42.36198" lon="2.44769">
        <ele>1462.68</ele>
        <time>2015-06-06T06:59:13Z</time>
      </trkpt>
      <trkpt lat="42.3621" lon="2.44774">
        <ele>1463.985</ele>
        <time>2015-06-06T06:59:26Z</time>
      </trkpt>
      <trkpt lat="42.36221" lon="2.44778">
        <ele>1465.688</ele>
        <time>2015-06-06T06:59:39Z</time>
      </trkpt>
      <trkpt lat="42.36232" lon="2.44783">
        <ele>1467.02</ele>
        <time>2015-06-06T06:59:51Z</time>
      </trkpt>
      <trkpt lat="42.3624" lon="2.4479">
        <ele>1468.189</ele>
        <time>2015-06-06T07:00:02Z</time>
      </trkpt>
      <trkpt lat="42.36248" lon="2.44798">
        <ele>1469.367</ele>
        <time>2015-06-06T07:00:13Z</time>
      </trkpt>
      <trkpt lat="42.36256" lon="2.44807">
        <ele>1470.481</ele>
        <time>2015-06-06T07:00:23Z</time>
      </trkpt>
      <trkpt lat="42.36263" lon="2.44816">
        <ele>1471.219</ele>
        <time>2015-06-06T07:00:34Z</time>
      </trkpt>
      <trkpt lat="42.36269" lon="2.44825">
        <ele>1472.607</ele>
        <time>2015-06-06T07:00:46Z</time>
      </trkpt>
      <trkpt lat="42.36275" lon="2.44836">
        <ele>1474.285</ele>
        <time>2015-06-06T07:00:59Z</time>
      </trkpt>
      <trkpt lat="42.36283" lon="2.44845">
        <ele>1475.775</ele>
        <time>2015-06-06T07:02:43Z</time>
      </trkpt>
      <trkpt lat="42.3629" lon="2.44853">
        <ele>1477.259</ele>
        <time>2015-06-06T07:02:53Z</time>
      </trkpt>
      <trkpt lat="42.36297" lon="2.4486">
        <ele>1478.694</ele>
        <time>2015-06-06T07:03:04Z</time>
      </trkpt>
      <trkpt lat="42.36304" lon="2.44869">
        <ele>1480.097</ele>
        <time>2015-06-06T07:03:14Z</time>
      </trkpt>
      <trkpt lat="42.36311" lon="2.44878">
        <ele>1481.289</ele>
        <time>2015-06-06T07:03:24Z</time>
      </trkpt>
      <trkpt lat="42.36318" lon="2.44886">
        <ele>1482.568</ele>
        <time>2015-06-06T07:03:35Z</time>
      </trkpt>
      <trkpt lat="42.36326" lon="2.44894">
        <ele>1484.059</ele>
        <time>2015-06-06T07:03:46Z</time>
      </trkpt>
      <trkpt lat="42.36333" lon="2.44903">
        <ele>1484.703</ele>
        <time>2015-06-06T07:03:56Z</time>
      </trkpt>
      <trkpt lat="42.36339" lon="2.44912">
        <ele>1486.123</ele>
        <time>2015-06-06T07:04:07Z</time>
      </trkpt>
      <trkpt lat="42.36347" lon="2.44921">
        <ele>1487.507</ele>
        <time>2015-06-06T07:04:19Z</time>
      </trkpt>
      <trkpt lat="42.36356" lon="2.44929">
        <ele>1488.894</ele>
        <time>2015-06-06T07:04:30Z</time>
      </trkpt>
      <trkpt lat="42.36364" lon="2.44937">
        <ele>1489.414</ele>
        <time>2015-06-06T07:04:43Z</time>
      </trkpt>
      <trkpt lat="42.36371" lon="2.44945">
        <ele>1490.548</ele>
        <time>2015-06-06T07:04:54Z</time>
      </trkpt>
      <trkpt lat="42.36379" lon="2.44954">
        <ele>1491.973</ele>
        <time>2015-06-06T07:05:07Z</time>
      </trkpt>
      <trkpt lat="42.36388" lon="2.4496">
        <ele>1493.566</ele>
        <time>2015-06-06T07:05:19Z</time>
      </trkpt>
      <trkpt lat="42.36396" lon="2.44968">
        <ele>1494.738</ele>
        <time>2015-06-06T07:05:31Z</time>
      </trkpt>
      <trkpt lat="42.36404" lon="2.44976">
        <ele>1496.637</ele>
        <time>2015-06-06T07:05:44Z</time>
      </trkpt>
      <trkpt lat="42.3641" lon="2.44986">
        <ele>1499.277</ele>
        <time>2015-06-06T07:06:32Z</time>
      </trkpt>
      <trkpt lat="42.36413" lon="2.44998">
        <ele>1500.161</ele>
        <time>2015-06-06T07:06:44Z</time>
      </trkpt>
      <trkpt lat="42.36415" lon="2.45011">
        <ele>1502.127</ele>
        <time>2015-06-06T07:06:56Z</time>
      </trkpt>
      <trkpt lat="42.36419" lon="2.45023">
        <ele>1503.707</ele>
        <time>2015-06-06T07:07:09Z</time>
      </trkpt>
      <trkpt lat="42.36422" lon="2.45036">
        <ele>1505.696</ele>
        <time>2015-06-06T07:07:22Z</time>
      </trkpt>
      <trkpt lat="42.36427" lon="2.45048">
        <ele>1507.176</ele>
        <time>2015-06-06T07:07:35Z</time>
      </trkpt>
      <trkpt lat="42.36434" lon="2.45057">
        <ele>1508.91</ele>
        <time>2015-06-06T07:08:04Z</time>
      </trkpt>
      <trkpt lat="42.3644" lon="2.45067">
        <ele>1510.535</ele>
        <time>2015-06-06T07:08:18Z</time>
      </trkpt>
      <trkpt lat="42.36445" lon="2.45078">
        <ele>1512.618</ele>
        <time>2015-06-06T07:08:32Z</time>
      </trkpt>
      <trkpt lat="42.36451" lon="2.45088">
        <ele>1514.27</ele>
        <time>2015-06-06T07:08:44Z</time>
      </trkpt>
      <trkpt lat="42.36457" lon="2.45099">
        <ele>1515.329</ele>
        <time>2015-06-06T07:08:55Z</time>
      </trkpt>
      <trkpt lat="42.36461" lon="2.45111">
        <ele>1516.461</ele>
        <time>2015-06-06T07:09:06Z</time>
      </trkpt>
      <trkpt lat="42.36465" lon="2.45123">
        <ele>1517.821</ele>
        <time>2015-06-06T07:09:17Z</time>
      </trkpt>
      <trkpt lat="42.36468" lon="2.45135">
        <ele>1518.913</ele>
        <time>2015-06-06T07:09:28Z</time>
      </trkpt>
      <trkpt lat="42.36472" lon="2.45147">
        <ele>1520.207</ele>
        <time>2015-06-06T07:09:39Z</time>
      </trkpt>
      <trkpt lat="42.36475" lon="2.45159">
        <ele>1521.145</ele>
        <time>2015-06-06T07:09:50Z</time>
      </trkpt>
      <trkpt lat="42.36478" lon="2.45171">
        <ele>1522.175</ele>
        <time>2015-06-06T07:10:01Z</time>
      </trkpt>
      <trkpt lat="42.36482" lon="2.45183">
        <ele>1523.539</ele>
        <time>2015-06-06T07:10:14Z</time>
      </trkpt>
      <trkpt lat="42.36486" lon="2.45196">
        <ele>1524.724</ele>
        <time>2015-06-06T07:10:36Z</time>
      </trkpt>
      <trkpt lat="42.36489" lon="2.45208">
        <ele>1525.567</ele>
        <time>2015-06-06T07:10:46Z</time>
      </trkpt>
      <trkpt lat="42.36492" lon="2.4522">
        <ele>1526.419</ele>
        <time>2015-06-06T07:10:56Z</time>
      </trkpt>
      <trkpt lat="42.36495" lon="2.45232">
        <ele>1527.198</ele>
        <time>2015-06-06T07:11:05Z</time>
      </trkpt>
      <trkpt lat="42.36498" lon="2.45245">
        <ele>1527.925</ele>
        <time>2015-06-06T07:11:15Z</time>
      </trkpt>
      <trkpt lat="42.36501" lon="2.45257">
        <ele>1528.526</ele>
        <time>2015-06-06T07:11:25Z</time>
      </trkpt>
      <trkpt lat="42.36504" lon="2.4527">
        <ele>1529.408</ele>
        <time>2015-06-06T07:11:35Z</time>
      </trkpt>
      <trkpt lat="42.36507" lon="2.45283">
        <ele>1530.207</ele>
        <time>2015-06-06T07:11:46Z</time>
      </trkpt>
      <trkpt lat="42.3651" lon="2.45295">
        <ele>1531.941</ele>
        <time>2015-06-06T07:11:57Z</time>
      </trkpt>
      <trkpt lat="42.36512" lon="2.45308">
        <ele>1533.191</ele>
        <time>2015-06-06T07:12:08Z</time>
      </trkpt>
      <trkpt lat="42.36514" lon="2.4532">
        <ele>1534.665</ele>
        <time>2015-06-06T07:12:20Z</time>
      </trkpt>
      <trkpt lat="42.36515" lon="2.45334">
        <ele>1536.48</ele>
        <time>2015-06-06T07:12:33Z</time>
      </trkpt>
      <trkpt lat="42.36517" lon="2.45344">
        <ele>1537.433</ele>
        <time>2015-06-06T07:12:57Z</time>
      </trkpt>
      <trkpt lat="42.36523" lon="2.45354">
        <ele>1538.345</ele>
        <time>2015-06-06T07:13:08Z</time>
      </trkpt>
      <trkpt lat="42.36529" lon="2.45363">
        <ele>1538.574</ele>
        <time>2015-06-06T07:13:46Z</time>
      </trkpt>
      <trkpt lat="42.36538" lon="2.45372">
        <ele>1538.619</ele>
        <time>2015-06-06T07:13:52Z</time>
      </trkpt>
      <trkpt lat="42.36546" lon="2.4538">
        <ele>1538.709</ele>
        <time>2015-06-06T07:13:57Z</time>
      </trkpt>
      <trkpt lat="42.36556" lon="2.45388">
        <ele>1538.719</ele>
        <time>2015-06-06T07:14:02Z</time>
      </trkpt>
      <trkpt lat="42.36565" lon="2.45396">
        <ele>1538.907</ele>
        <time>2015-06-06T07:14:07Z</time>
      </trkpt>
      <trkpt lat="42.36573" lon="2.45404">
        <ele>1539.19</ele>
        <time>2015-06-06T07:14:12Z</time>
      </trkpt>
      <trkpt lat="42.36581" lon="2.45413">
        <ele>1539.68</ele>
        <time>2015-06-06T07:14:19Z</time>
      </trkpt>
      <trkpt lat="42.36583" lon="2.45425">
        <ele>1540.374</ele>
        <time>2015-06-06T07:14:26Z</time>
      </trkpt>
      <trkpt lat="42.36581" lon="2.45439">
        <ele>1540.889</ele>
        <time>2015-06-06T07:14:32Z</time>
      </trkpt>
      <trkpt lat="42.36587" lon="2.45448">
        <ele>1540.812</ele>
        <time>2015-06-06T07:14:36Z</time>
      </trkpt>
      <trkpt lat="42.36598" lon="2.45451">
        <ele>1540.754</ele>
        <time>2015-06-06T07:14:43Z</time>
      </trkpt>
      <trkpt lat="42.36608" lon="2.45453">
        <ele>1541.433</ele>
        <time>2015-06-06T07:14:50Z</time>
      </trkpt>
      <trkpt lat="42.36616" lon="2.45462">
        <ele>1542.421</ele>
        <time>2015-06-06T07:14:57Z</time>
      </trkpt>
      <trkpt lat="42.36622" lon="2.45472">
        <ele>1543.741</ele>
        <time>2015-06-06T07:15:05Z</time>
      </trkpt>
      <trkpt lat="42.3663" lon="2.45481">
        <ele>1545.005</ele>
        <time>2015-06-06T07:15:13Z</time>
      </trkpt>
      <trkpt lat="42.36636" lon="2.45489">
        <ele>1546.007</ele>
        <time>2015-06-06T07:15:21Z</time>
      </trkpt>
      <trkpt lat="42.36643" lon="2.45498">
        <ele>1547.551</ele>
        <time>2015-06-06T07:15:43Z</time>
      </trkpt>
      <trkpt lat="42.3665" lon="2.4551">
        <ele>1549.381</ele>
        <time>2015-06-06T07:15:55Z</time>
      </trkpt>
      <trkpt lat="42.36656" lon="2.45522">
        <ele>1551.465</ele>
        <time>2015-06-06T07:16:08Z</time>
      </trkpt>
      <trkpt lat="42.36659" lon="2.45534">
        <ele>1553.81</ele>
        <time>2015-06-06T07:16:21Z</time>
      </trkpt>
      <trkpt lat="42.36665" lon="2.45545">
        <ele>1555.733</ele>
        <time>2015-06-06T07:16:33Z</time>
      </trkpt>
      <trkpt lat="42.36668" lon="2.45557">
        <ele>1557.165</ele>
        <time>2015-06-06T07:16:43Z</time>
      </trkpt>
      <trkpt lat="42.36672" lon="2.45569">
        <ele>1557.954</ele>
        <time>2015-06-06T07:16:53Z</time>
      </trkpt>
      <trkpt lat="42.36676" lon="2.4558">
        <ele>1559.382</ele>
        <time>2015-06-06T07:17:03Z</time>
      </trkpt>
      <trkpt lat="42.36681" lon="2.45593">
        <ele>1559.943</ele>
        <time>2015-06-06T07:17:13Z</time>
      </trkpt>
      <trkpt lat="42.36686" lon="2.45593">
        <ele>1560.617</ele>
        <time>2015-06-06T07:17:25Z</time>
      </trkpt>
      <trkpt lat="42.36689" lon="2.4558">
        <ele>1560.507</ele>
        <time>2015-06-06T07:20:13Z</time>
      </trkpt>
      <trkpt lat="42.36691" lon="2.45595">
        <ele>1561.297</ele>
        <time>2015-06-06T07:20:38Z</time>
      </trkpt>
      <trkpt lat="42.36695" lon="2.45608">
        <ele>1561.217</ele>
        <time>2015-06-06T07:20:45Z</time>
      </trkpt>
      <trkpt lat="42.36698" lon="2.45621">
        <ele>1561.571</ele>
        <time>2015-06-06T07:20:50Z</time>
      </trkpt>
      <trkpt lat="42.36701" lon="2.45635">
        <ele>1561.826</ele>
        <time>2015-06-06T07:20:55Z</time>
      </trkpt>
      <trkpt lat="42.36705" lon="2.45649">
        <ele>1561.989</ele>
        <time>2015-06-06T07:21:00Z</time>
      </trkpt>
      <trkpt lat="42.36709" lon="2.45662">
        <ele>1562.121</ele>
        <time>2015-06-06T07:21:05Z</time>
      </trkpt>
      <trkpt lat="42.36707" lon="2.45674">
        <ele>1562.32</ele>
        <time>2015-06-06T07:21:10Z</time>
      </trkpt>
      <trkpt lat="42.36705" lon="2.45682">
        <ele>1562.083</ele>
        <time>2015-06-06T07:21:26Z</time>
      </trkpt>
      <trkpt lat="42.36715" lon="2.4568">
        <ele>1561.825</ele>
        <time>2015-06-06T07:21:31Z</time>
      </trkpt>
      <trkpt lat="42.36726" lon="2.45679">
        <ele>1561.717</ele>
        <time>2015-06-06T07:21:36Z</time>
      </trkpt>
      <trkpt lat="42.36737" lon="2.45679">
        <ele>1561.807</ele>
        <time>2015-06-06T07:21:41Z</time>
      </trkpt>
      <trkpt lat="42.36747" lon="2.45679">
        <ele>1561.877</ele>
        <time>2015-06-06T07:21:45Z</time>
      </trkpt>
      <trkpt lat="42.36756" lon="2.4568">
        <ele>1561.587</ele>
        <time>2015-06-06T07:21:49Z</time>
      </trkpt>
      <trkpt lat="42.36766" lon="2.45681">
        <ele>1561.231</ele>
        <time>2015-06-06T07:21:53Z</time>
      </trkpt>
      <trkpt lat="42.36775" lon="2.45682">
        <ele>1560.956</ele>
        <time>2015-06-06T07:21:58Z</time>
      </trkpt>
      <trkpt lat="42.36785" lon="2.45679">
        <ele>1561.129</ele>
        <time>2015-06-06T07:22:37Z</time>
      </trkpt>
      <trkpt lat="42.36796" lon="2.45681">
        <ele>1561.211</ele>
        <time>2015-06-06T07:22:41Z</time>
      </trkpt>
      <trkpt lat="42.36806" lon="2.45682">
        <ele>1561.26</ele>
        <time>2015-06-06T07:22:44Z</time>
      </trkpt>
      <trkpt lat="42.36817" lon="2.45682">
        <ele>1561.244</ele>
        <time>2015-06-06T07:22:47Z</time>
      </trkpt>
      <trkpt lat="42.36827" lon="2.45682">
        <ele>1561.105</ele>
        <time>2015-06-06T07:22:50Z</time>
      </trkpt>
      <trkpt lat="42.36839" lon="2.45683">
        <ele>1561.015</ele>
        <time>2015-06-06T07:22:53Z</time>
      </trkpt>
      <trkpt lat="42.3685" lon="2.45685">
        <ele>1560.807</ele>
        <time>2015-06-06T07:22:56Z</time>
      </trkpt>
      <trkpt lat="42.36863" lon="2.45687">
        <ele>1560.823</ele>
        <time>2015-06-06T07:22:59Z</time>
      </trkpt>
      <trkpt lat="42.36875" lon="2.45691">
        <ele>1560.843</ele>
        <time>2015-06-06T07:23:02Z</time>
      </trkpt>
      <trkpt lat="42.36886" lon="2.45695">
        <ele>1560.997</ele>
        <time>2015-06-06T07:23:05Z</time>
      </trkpt>
      <trkpt lat="42.36898" lon="2.457">
        <ele>1561.122</ele>
        <time>2015-06-06T07:23:08Z</time>
      </trkpt>
      <trkpt lat="42.3691" lon="2.45707">
        <ele>1561.385</ele>
        <time>2015-06-06T07:23:11Z</time>
      </trkpt>
      <trkpt lat="42.36921" lon="2.45715">
        <ele>1561.337</ele>
        <time>2015-06-06T07:23:14Z</time>
      </trkpt>
      <trkpt lat="42.36932" lon="2.45722">
        <ele>1561.316</ele>
        <time>2015-06-06T07:23:17Z</time>
      </trkpt>
      <trkpt lat="42.36944" lon="2.45729">
        <ele>1561.538</ele>
        <time>2015-06-06T07:23:20Z</time>
      </trkpt>
      <trkpt lat="42.36956" lon="2.45738">
        <ele>1561.57</ele>
        <time>2015-06-06T07:23:23Z</time>
      </trkpt>
      <trkpt lat="42.36968" lon="2.45747">
        <ele>1561.517</ele>
        <time>2015-06-06T07:23:26Z</time>
      </trkpt>
      <trkpt lat="42.36976" lon="2.45752">
        <ele>1561.407</ele>
        <time>2015-06-06T07:23:28Z</time>
      </trkpt>
      <trkpt lat="42.36985" lon="2.45758">
        <ele>1561.362</ele>
        <time>2015-06-06T07:23:30Z</time>
      </trkpt>
      <trkpt lat="42.36995" lon="2.45766">
        <ele>1561.142</ele>
        <time>2015-06-06T07:23:32Z</time>
      </trkpt>
      <trkpt lat="42.37005" lon="2.45777">
        <ele>1560.786</ele>
        <time>2015-06-06T07:23:34Z</time>
      </trkpt>
      <trkpt lat="42.37015" lon="2.4579">
        <ele>1560.291</ele>
        <time>2015-06-06T07:23:36Z</time>
      </trkpt>
      <trkpt lat="42.37024" lon="2.45805">
        <ele>1559.364</ele>
        <time>2015-06-06T07:23:38Z</time>
      </trkpt>
      <trkpt lat="42.37032" lon="2.45823">
        <ele>1558.576</ele>
        <time>2015-06-06T07:23:40Z</time>
      </trkpt>
      <trkpt lat="42.37039" lon="2.45842">
        <ele>1557.745</ele>
        <time>2015-06-06T07:23:42Z</time>
      </trkpt>
      <trkpt lat="42.37046" lon="2.45862">
        <ele>1556.818</ele>
        <time>2015-06-06T07:23:44Z</time>
      </trkpt>
      <trkpt lat="42.37054" lon="2.45881">
        <ele>1555.998</ele>
        <time>2015-06-06T07:23:46Z</time>
      </trkpt>
      <trkpt lat="42.37062" lon="2.45899">
        <ele>1555.117</ele>
        <time>2015-06-06T07:23:48Z</time>
      </trkpt>
      <trkpt lat="42.37072" lon="2.45916">
        <ele>1554.107</ele>
        <time>2015-06-06T07:23:50Z</time>
      </trkpt>
      <trkpt lat="42.37082" lon="2.45932">
        <ele>1553.09</ele>
        <time>2015-06-06T07:23:52Z</time>
      </trkpt>
      <trkpt lat="42.37093" lon="2.45948">
        <ele>1551.92</ele>
        <time>2015-06-06T07:23:54Z</time>
      </trkpt>
      <trkpt lat="42.37105" lon="2.45965">
        <ele>1550.964</ele>
        <time>2015-06-06T07:23:56Z</time>
      </trkpt>
      <trkpt lat="42.3711" lon="2.45974">
        <ele>1550.469</ele>
        <time>2015-06-06T07:23:57Z</time>
      </trkpt>
      <trkpt lat="42.37122" lon="2.45992">
        <ele>1549.512</ele>
        <time>2015-06-06T07:23:59Z</time>
      </trkpt>
      <trkpt lat="42.37135" lon="2.4601">
        <ele>1547.934</ele>
        <time>2015-06-06T07:24:01Z</time>
      </trkpt>
      <trkpt lat="42.37141" lon="2.4602">
        <ele>1547.393</ele>
        <time>2015-06-06T07:24:02Z</time>
      </trkpt>
      <trkpt lat="42.37148" lon="2.46029">
        <ele>1546.789</ele>
        <time>2015-06-06T07:24:03Z</time>
      </trkpt>
      <trkpt lat="42.37155" lon="2.46039">
        <ele>1546.106</ele>
        <time>2015-06-06T07:24:04Z</time>
      </trkpt>
      <trkpt lat="42.37161" lon="2.46049">
        <ele>1545.426</ele>
        <time>2015-06-06T07:24:05Z</time>
      </trkpt>
      <trkpt lat="42.37168" lon="2.46058">
        <ele>1544.707</ele>
        <time>2015-06-06T07:24:06Z</time>
      </trkpt>
      <trkpt lat="42.37175" lon="2.46067">
        <ele>1544.087</ele>
        <time>2015-06-06T07:24:07Z</time>
      </trkpt>
      <trkpt lat="42.37188" lon="2.46082">
        <ele>1542.737</ele>
        <time>2015-06-06T07:24:09Z</time>
      </trkpt>
      <trkpt lat="42.37203" lon="2.46094">
        <ele>1541.471</ele>
        <time>2015-06-06T07:24:11Z</time>
      </trkpt>
      <trkpt lat="42.37219" lon="2.46103">
        <ele>1539.926</ele>
        <time>2015-06-06T07:24:13Z</time>
      </trkpt>
      <trkpt lat="42.37236" lon="2.46113">
        <ele>1538.479</ele>
        <time>2015-06-06T07:24:15Z</time>
      </trkpt>
      <trkpt lat="42.37253" lon="2.46122">
        <ele>1537.041</ele>
        <time>2015-06-06T07:24:17Z</time>
      </trkpt>
      <trkpt lat="42.3727" lon="2.46131">
        <ele>1535.72</ele>
        <time>2015-06-06T07:24:19Z</time>
      </trkpt>
      <trkpt lat="42.37279" lon="2.46135">
        <ele>1534.991</ele>
        <time>2015-06-06T07:24:20Z</time>
      </trkpt>
      <trkpt lat="42.37288" lon="2.46139">
        <ele>1534.281</ele>
        <time>2015-06-06T07:24:21Z</time>
      </trkpt>
      <trkpt lat="42.37304" lon="2.46148">
        <ele>1532.919</ele>
        <time>2015-06-06T07:24:23Z</time>
      </trkpt>
      <trkpt lat="42.3732" lon="2.46156">
        <ele>1531.607</ele>
        <time>2015-06-06T07:24:25Z</time>
      </trkpt>
      <trkpt lat="42.37335" lon="2.46162">
        <ele>1529.768</ele>
        <time>2015-06-06T07:24:27Z</time>
      </trkpt>
      <trkpt lat="42.37349" lon="2.46166">
        <ele>1528.338</ele>
        <time>2015-06-06T07:24:29Z</time>
      </trkpt>
      <trkpt lat="42.3736" lon="2.46168">
        <ele>1527.062</ele>
        <time>2015-06-06T07:24:31Z</time>
      </trkpt>
      <trkpt lat="42.3737" lon="2.46172">
        <ele>1525.867</ele>
        <time>2015-06-06T07:24:33Z</time>
      </trkpt>
      <trkpt lat="42.37379" lon="2.46177">
        <ele>1524.78</ele>
        <time>2015-06-06T07:24:35Z</time>
      </trkpt>
      <trkpt lat="42.37389" lon="2.46179">
        <ele>1523.412</ele>
        <time>2015-06-06T07:24:38Z</time>
      </trkpt>
      <trkpt lat="42.37399" lon="2.46176">
        <ele>1521.991</ele>
        <time>2015-06-06T07:24:42Z</time>
      </trkpt>
      <trkpt lat="42.37406" lon="2.46169">
        <ele>1519.044</ele>
        <time>2015-06-06T07:25:21Z</time>
      </trkpt>
      <trkpt lat="42.37413" lon="2.4616">
        <ele>1518.905</ele>
        <time>2015-06-06T07:25:24Z</time>
      </trkpt>
      <trkpt lat="42.37425" lon="2.46152">
        <ele>1518.715</ele>
        <time>2015-06-06T07:25:27Z</time>
      </trkpt>
      <trkpt lat="42.37435" lon="2.46147">
        <ele>1518.307</ele>
        <time>2015-06-06T07:25:29Z</time>
      </trkpt>
      <trkpt lat="42.37446" lon="2.46144">
        <ele>1518.073</ele>
        <time>2015-06-06T07:25:31Z</time>
      </trkpt>
      <trkpt lat="42.37458" lon="2.46143">
        <ele>1517.643</ele>
        <time>2015-06-06T07:25:33Z</time>
      </trkpt>
      <trkpt lat="42.37468" lon="2.46142">
        <ele>1517.257</ele>
        <time>2015-06-06T07:25:35Z</time>
      </trkpt>
    </trkseg>
  </trk>
</gpx>